BAW32 VHHH-EGLL
Flight info
| Callsign | BAW32 |
|---|---|
| Flight time | N/A |
| Altitude | 32100 |
| Route | BEKOL A461 SHL W22 TEPID W24 OSNOV G586 QP B330 ELKAL W179 OMBON W195 IDOPA W197 ANDIM B215 IBANO G470 AKLAS W192 FKG A368 SARIN N161 LEYLA T916 MATAL REBLO UR317 TBN UM11 CRM UL746 ODERO OPT TEGRI GAZDA ARSIN PEROL RENKA INBED BOMBI DENUT L608 LOGAN |
| Aircraft | A35K/H-SDE2E3FGHIJ4J5M1RWXYZ/LB2D1 |
Departure
| Time | N/A |
|---|---|
| Airport | Hong Kong International Airport (VHHH) |
Arrival
| Time | 2026-05-06 02:24 |
|---|---|
| Airport | London Heathrow Airport (EGLL) |
| Time | Latitude | Longitude | Altitude | Speed | Heading |
|---|---|---|---|---|---|
| 2026-05-05 18:34 | 47.31760 | 77.02784 | 36121 ft | 472 kts | 276° |
| 2026-05-05 18:34 | 47.32174 | 76.97974 | 36127 ft | 472 kts | 278° |
| 2026-05-05 18:34 | 47.33245 | 76.88416 | 36126 ft | 472 kts | 279° |
| 2026-05-05 18:35 | 47.34305 | 76.78890 | 36121 ft | 472 kts | 279° |
| 2026-05-05 18:35 | 47.35284 | 76.69378 | 36120 ft | 472 kts | 278° |
| 2026-05-05 18:36 | 47.36225 | 76.59875 | 36111 ft | 472 kts | 278° |
| 2026-05-05 18:36 | 47.37164 | 76.50279 | 36119 ft | 472 kts | 278° |
| 2026-05-05 18:37 | 47.38096 | 76.40687 | 36115 ft | 472 kts | 278° |
| 2026-05-05 18:37 | 47.39023 | 76.31089 | 36115 ft | 472 kts | 278° |
| 2026-05-05 18:38 | 47.39943 | 76.21476 | 36117 ft | 472 kts | 278° |
| 2026-05-05 18:38 | 47.40697 | 76.13524 | 36108 ft | 471 kts | 277° |
| 2026-05-05 18:39 | 47.41599 | 76.03947 | 36105 ft | 471 kts | 277° |
| 2026-05-05 18:39 | 47.42636 | 75.92803 | 36105 ft | 471 kts | 277° |
| 2026-05-05 18:40 | 47.43378 | 75.84763 | 36104 ft | 471 kts | 277° |
| 2026-05-05 18:40 | 47.44250 | 75.75235 | 36103 ft | 471 kts | 277° |
| 2026-05-05 18:41 | 47.45120 | 75.65637 | 36110 ft | 471 kts | 277° |
| 2026-05-05 18:41 | 47.45981 | 75.56054 | 36105 ft | 471 kts | 277° |
| 2026-05-05 18:42 | 47.46834 | 75.46456 | 36109 ft | 471 kts | 277° |
| 2026-05-05 18:42 | 47.47675 | 75.36905 | 36114 ft | 471 kts | 277° |
| 2026-05-05 18:43 | 47.48513 | 75.27292 | 36108 ft | 471 kts | 277° |
| 2026-05-05 18:43 | 47.49343 | 75.17676 | 36109 ft | 471 kts | 276° |
| 2026-05-05 18:44 | 47.50164 | 75.08077 | 36115 ft | 471 kts | 276° |
| 2026-05-05 18:44 | 47.50975 | 74.98483 | 36111 ft | 471 kts | 276° |
| 2026-05-05 18:45 | 47.51779 | 74.88878 | 36114 ft | 470 kts | 276° |
| 2026-05-05 18:45 | 47.52575 | 74.79275 | 36118 ft | 470 kts | 276° |
| 2026-05-05 18:46 | 47.53364 | 74.69659 | 36116 ft | 471 kts | 276° |
| 2026-05-05 18:46 | 47.54146 | 74.60024 | 36119 ft | 471 kts | 276° |
| 2026-05-05 18:47 | 47.54913 | 74.50467 | 36122 ft | 471 kts | 276° |
| 2026-05-05 18:47 | 47.55677 | 74.40852 | 36115 ft | 470 kts | 276° |
| 2026-05-05 18:48 | 47.56434 | 74.31223 | 36112 ft | 471 kts | 276° |
| 2026-05-05 18:48 | 47.57184 | 74.21582 | 36125 ft | 470 kts | 276° |
| 2026-05-05 18:49 | 47.57922 | 74.11975 | 36121 ft | 470 kts | 276° |
| 2026-05-05 18:49 | 47.58653 | 74.02351 | 36122 ft | 470 kts | 275° |
| 2026-05-05 18:50 | 47.59377 | 73.92724 | 36122 ft | 470 kts | 275° |
| 2026-05-05 18:50 | 47.60088 | 73.83152 | 36130 ft | 470 kts | 275° |
| 2026-05-05 18:51 | 47.60795 | 73.73532 | 36126 ft | 470 kts | 275° |
| 2026-05-05 18:51 | 47.61494 | 73.63896 | 36127 ft | 470 kts | 275° |
| 2026-05-05 18:52 | 47.62186 | 73.54253 | 36125 ft | 470 kts | 275° |
| 2026-05-05 18:52 | 47.62870 | 73.44606 | 36123 ft | 470 kts | 275° |
| 2026-05-05 18:53 | 47.63544 | 73.34973 | 36127 ft | 470 kts | 275° |
| 2026-05-05 18:53 | 47.64212 | 73.25317 | 36129 ft | 470 kts | 275° |
| 2026-05-05 18:54 | 47.64866 | 73.15745 | 36126 ft | 469 kts | 275° |
| 2026-05-05 18:54 | 47.65517 | 73.06101 | 36127 ft | 469 kts | 274° |
| 2026-05-05 18:55 | 47.66159 | 72.96452 | 36130 ft | 469 kts | 274° |
| 2026-05-05 18:55 | 47.66788 | 72.86882 | 36130 ft | 469 kts | 274° |
| 2026-05-05 18:56 | 47.67414 | 72.77243 | 36128 ft | 469 kts | 274° |
| 2026-05-05 18:56 | 47.68032 | 72.67605 | 36132 ft | 469 kts | 274° |
| 2026-05-05 18:57 | 47.68640 | 72.57972 | 36126 ft | 469 kts | 274° |
| 2026-05-05 18:57 | 47.69242 | 72.48327 | 36126 ft | 469 kts | 274° |
| 2026-05-05 18:58 | 47.69836 | 72.38669 | 36129 ft | 469 kts | 274° |
| 2026-05-05 18:58 | 47.70417 | 72.29084 | 36129 ft | 469 kts | 274° |
| 2026-05-05 18:59 | 47.70994 | 72.19433 | 36126 ft | 468 kts | 274° |
| 2026-05-05 18:59 | 47.71562 | 72.09799 | 36126 ft | 468 kts | 273° |
| 2026-05-05 19:00 | 47.72121 | 72.00180 | 36124 ft | 467 kts | 273° |
| 2026-05-05 19:00 | 47.72672 | 71.90566 | 36124 ft | 467 kts | 273° |
| 2026-05-05 19:01 | 47.73212 | 71.80984 | 36115 ft | 467 kts | 273° |
| 2026-05-05 19:01 | 47.73651 | 71.71367 | 36117 ft | 467 kts | 272° |
| 2026-05-05 19:02 | 47.74019 | 71.61717 | 36096 ft | 467 kts | 272° |
| 2026-05-05 19:02 | 47.74392 | 71.52072 | 36103 ft | 467 kts | 272° |
| 2026-05-05 19:03 | 47.74773 | 71.42433 | 36098 ft | 467 kts | 272° |
| 2026-05-05 19:03 | 47.75148 | 71.32851 | 36089 ft | 467 kts | 272° |
| 2026-05-05 19:04 | 47.75516 | 71.23239 | 36089 ft | 467 kts | 272° |
| 2026-05-05 19:04 | 47.75877 | 71.13574 | 36085 ft | 467 kts | 272° |
| 2026-05-05 19:05 | 47.76229 | 71.03943 | 36085 ft | 467 kts | 272° |
| 2026-05-05 19:05 | 47.76571 | 70.94342 | 36087 ft | 467 kts | 272° |
| 2026-05-05 19:06 | 47.76907 | 70.84694 | 36086 ft | 467 kts | 272° |
| 2026-05-05 19:06 | 47.77236 | 70.75027 | 36080 ft | 467 kts | 271° |
| 2026-05-05 19:07 | 47.77555 | 70.65404 | 36073 ft | 467 kts | 272° |
| 2026-05-05 19:07 | 47.77867 | 70.56010 | 36071 ft | 467 kts | 272° |
| 2026-05-05 19:08 | 47.78166 | 70.46359 | 36072 ft | 467 kts | 271° |
| 2026-05-05 19:08 | 47.78454 | 70.36702 | 36066 ft | 467 kts | 271° |
| 2026-05-05 19:09 | 47.78737 | 70.27062 | 36063 ft | 467 kts | 271° |
| 2026-05-05 19:09 | 47.79014 | 70.17433 | 36061 ft | 466 kts | 271° |
| 2026-05-05 19:10 | 47.79284 | 70.07803 | 36053 ft | 465 kts | 271° |
| 2026-05-05 19:10 | 47.79544 | 69.98198 | 36053 ft | 465 kts | 271° |
| 2026-05-05 19:11 | 47.79795 | 69.88648 | 36055 ft | 465 kts | 271° |
| 2026-05-05 19:11 | 47.80040 | 69.78991 | 36049 ft | 465 kts | 271° |
| 2026-05-05 19:12 | 47.80276 | 69.69378 | 36053 ft | 464 kts | 271° |
| 2026-05-05 19:12 | 47.80503 | 69.59836 | 36052 ft | 464 kts | 271° |
| 2026-05-05 19:13 | 47.80722 | 69.50260 | 36052 ft | 464 kts | 271° |
| 2026-05-05 19:13 | 47.80933 | 69.40690 | 36047 ft | 464 kts | 271° |
| 2026-05-05 19:14 | 47.81137 | 69.31087 | 36042 ft | 463 kts | 271° |
| 2026-05-05 19:14 | 47.81332 | 69.21514 | 36037 ft | 462 kts | 271° |
| 2026-05-05 19:15 | 47.81519 | 69.11962 | 36036 ft | 462 kts | 271° |
| 2026-05-05 19:15 | 47.81699 | 69.02398 | 36043 ft | 461 kts | 271° |
| 2026-05-05 19:16 | 47.81869 | 68.92904 | 36040 ft | 461 kts | 271° |
| 2026-05-05 19:16 | 47.82003 | 68.83393 | 36023 ft | 460 kts | 268° |
| 2026-05-05 19:17 | 47.81393 | 68.73935 | 36035 ft | 458 kts | 263° |
| 2026-05-05 19:17 | 47.80550 | 68.64519 | 36035 ft | 458 kts | 262° |
| 2026-05-05 19:18 | 47.79678 | 68.55169 | 36033 ft | 458 kts | 262° |
| 2026-05-05 19:18 | 47.78804 | 68.45790 | 36032 ft | 458 kts | 262° |
| 2026-05-05 19:19 | 47.77929 | 68.36391 | 36028 ft | 458 kts | 262° |
| 2026-05-05 19:19 | 47.77050 | 68.27018 | 36033 ft | 457 kts | 262° |
| 2026-05-05 19:20 | 47.76166 | 68.17666 | 36030 ft | 457 kts | 262° |
| 2026-05-05 19:20 | 47.75270 | 68.08289 | 36018 ft | 457 kts | 262° |
| 2026-05-05 19:21 | 47.74376 | 67.99003 | 36032 ft | 457 kts | 262° |
| 2026-05-05 19:21 | 47.73465 | 67.89634 | 36029 ft | 457 kts | 262° |
| 2026-05-05 19:22 | 47.72549 | 67.80291 | 36029 ft | 457 kts | 262° |
| 2026-05-05 19:22 | 47.71559 | 67.70968 | 36033 ft | 457 kts | 259° |
| 2026-05-05 19:23 | 47.70155 | 67.61790 | 36031 ft | 458 kts | 257° |
| 2026-05-05 19:23 | 47.68675 | 67.52609 | 36031 ft | 457 kts | 258° |
| 2026-05-05 19:24 | 47.67253 | 67.43420 | 36029 ft | 456 kts | 258° |
| 2026-05-05 19:24 | 47.65863 | 67.34241 | 36032 ft | 456 kts | 258° |
| 2026-05-05 19:25 | 47.64472 | 67.25057 | 36031 ft | 456 kts | 258° |
| 2026-05-05 19:25 | 47.63069 | 67.15863 | 36027 ft | 456 kts | 258° |
| 2026-05-05 19:26 | 47.61663 | 67.06721 | 36031 ft | 455 kts | 258° |
| 2026-05-05 19:26 | 47.60251 | 66.97590 | 36028 ft | 455 kts | 258° |
| 2026-05-05 19:27 | 47.59073 | 66.90010 | 36034 ft | 455 kts | 258° |
| 2026-05-05 19:27 | 47.57405 | 66.79337 | 36020 ft | 455 kts | 258° |
| 2026-05-05 19:28 | 47.56212 | 66.71750 | 36029 ft | 454 kts | 258° |
| 2026-05-05 19:28 | 47.54749 | 66.62684 | 36022 ft | 453 kts | 257° |
| 2026-05-05 19:29 | 47.53242 | 66.53618 | 36023 ft | 453 kts | 257° |
| 2026-05-05 19:29 | 47.51732 | 66.44560 | 36027 ft | 453 kts | 257° |
| 2026-05-05 19:30 | 47.50222 | 66.35501 | 36024 ft | 454 kts | 257° |
| 2026-05-05 19:30 | 47.48715 | 66.26497 | 36017 ft | 454 kts | 257° |
| 2026-05-05 19:31 | 47.47191 | 66.17436 | 36011 ft | 454 kts | 257° |
| 2026-05-05 19:31 | 47.45656 | 66.08363 | 36015 ft | 454 kts | 257° |
| 2026-05-05 19:32 | 47.44125 | 65.99358 | 35997 ft | 454 kts | 257° |
| 2026-05-05 19:32 | 47.42578 | 65.90307 | 36008 ft | 455 kts | 257° |
| 2026-05-05 19:33 | 47.41030 | 65.81259 | 35998 ft | 455 kts | 257° |
| 2026-05-05 19:33 | 47.39531 | 65.72179 | 36004 ft | 455 kts | 257° |
| 2026-05-05 19:34 | 47.38038 | 65.63082 | 35994 ft | 455 kts | 257° |
| 2026-05-05 19:35 | 47.35778 | 65.49490 | 35990 ft | 454 kts | 257° |
| 2026-05-05 19:35 | 47.34271 | 65.40515 | 35992 ft | 454 kts | 257° |
| 2026-05-05 19:36 | 47.32746 | 65.31482 | 35983 ft | 454 kts | 257° |
| 2026-05-05 19:36 | 47.31212 | 65.22442 | 35984 ft | 454 kts | 257° |
| 2026-05-05 19:37 | 47.29675 | 65.13430 | 35981 ft | 453 kts | 257° |
| 2026-05-05 19:37 | 47.28133 | 65.04433 | 35975 ft | 453 kts | 256° |
| 2026-05-05 19:38 | 47.26587 | 64.95440 | 35969 ft | 453 kts | 256° |
| 2026-05-05 19:38 | 47.25029 | 64.86461 | 35975 ft | 453 kts | 256° |
| 2026-05-05 19:39 | 47.23460 | 64.77480 | 35976 ft | 452 kts | 256° |
| 2026-05-05 19:39 | 47.21885 | 64.68502 | 35970 ft | 452 kts | 256° |
| 2026-05-05 19:40 | 47.20322 | 64.59632 | 35971 ft | 452 kts | 256° |
| 2026-05-05 19:40 | 47.18743 | 64.50689 | 35965 ft | 452 kts | 256° |
| 2026-05-05 19:41 | 47.17160 | 64.41738 | 35959 ft | 452 kts | 256° |
| 2026-05-05 19:41 | 47.15571 | 64.32815 | 35965 ft | 451 kts | 256° |
| 2026-05-05 19:42 | 47.13978 | 64.23910 | 35968 ft | 450 kts | 255° |
| 2026-05-05 19:42 | 47.12376 | 64.15000 | 35967 ft | 450 kts | 255° |
| 2026-05-05 19:43 | 47.10774 | 64.06129 | 35964 ft | 450 kts | 255° |
| 2026-05-05 19:43 | 47.09169 | 63.97283 | 35963 ft | 450 kts | 255° |
| 2026-05-05 19:44 | 47.07551 | 63.88407 | 35959 ft | 450 kts | 255° |
| 2026-05-05 19:44 | 47.05922 | 63.79516 | 35957 ft | 450 kts | 255° |
| 2026-05-05 19:45 | 47.04289 | 63.70648 | 35955 ft | 450 kts | 255° |
| 2026-05-05 19:45 | 47.02651 | 63.61789 | 35948 ft | 450 kts | 255° |
| 2026-05-05 19:46 | 47.01008 | 63.52949 | 35951 ft | 449 kts | 255° |
| 2026-05-05 19:46 | 46.99365 | 63.44157 | 35949 ft | 449 kts | 255° |
| 2026-05-05 19:47 | 46.97707 | 63.35320 | 35950 ft | 449 kts | 255° |
| 2026-05-05 19:47 | 46.96043 | 63.26491 | 35946 ft | 449 kts | 255° |
| 2026-05-05 19:48 | 46.94383 | 63.17729 | 35944 ft | 448 kts | 255° |
| 2026-05-05 19:48 | 46.92711 | 63.08944 | 35944 ft | 448 kts | 255° |
| 2026-05-05 19:49 | 46.91037 | 63.00185 | 35944 ft | 448 kts | 255° |
| 2026-05-05 19:49 | 46.89350 | 62.91403 | 35944 ft | 448 kts | 255° |
| 2026-05-05 19:50 | 46.87661 | 62.82641 | 35941 ft | 447 kts | 254° |
| 2026-05-05 19:50 | 46.85978 | 62.73961 | 35941 ft | 447 kts | 254° |
| 2026-05-05 19:51 | 46.84280 | 62.65239 | 35938 ft | 447 kts | 254° |
| 2026-05-05 19:51 | 46.82570 | 62.56497 | 35939 ft | 447 kts | 254° |
| 2026-05-05 19:52 | 46.80850 | 62.47770 | 35936 ft | 446 kts | 254° |
| 2026-05-05 19:52 | 46.79135 | 62.39058 | 35938 ft | 446 kts | 254° |
| 2026-05-05 19:53 | 46.77411 | 62.30347 | 35937 ft | 446 kts | 254° |
| 2026-05-05 19:53 | 46.75694 | 62.21716 | 35937 ft | 446 kts | 253° |
| 2026-05-05 19:54 | 46.73953 | 62.13008 | 35934 ft | 446 kts | 253° |
| 2026-05-05 19:54 | 46.72207 | 62.04311 | 35937 ft | 445 kts | 253° |
| 2026-05-05 19:55 | 46.70473 | 61.95715 | 35931 ft | 445 kts | 253° |
| 2026-05-05 19:55 | 46.68720 | 61.87058 | 35933 ft | 445 kts | 253° |
| 2026-05-05 19:56 | 46.66963 | 61.78423 | 35931 ft | 445 kts | 253° |
| 2026-05-05 19:56 | 46.65199 | 61.69787 | 35929 ft | 444 kts | 253° |
| 2026-05-05 19:57 | 46.63432 | 61.61179 | 35926 ft | 444 kts | 253° |
| 2026-05-05 19:57 | 46.61658 | 61.52574 | 35926 ft | 443 kts | 253° |
| 2026-05-05 19:58 | 46.59883 | 61.43998 | 35922 ft | 443 kts | 253° |
| 2026-05-05 19:58 | 46.58097 | 61.35407 | 35922 ft | 443 kts | 253° |
| 2026-05-05 19:59 | 46.56324 | 61.26914 | 35919 ft | 440 kts | 253° |
| 2026-05-05 19:59 | 46.54544 | 61.18422 | 35921 ft | 440 kts | 253° |
| 2026-05-05 20:00 | 46.52755 | 61.09923 | 35917 ft | 440 kts | 253° |
| 2026-05-05 20:00 | 46.50962 | 61.01441 | 35920 ft | 439 kts | 253° |
| 2026-05-05 20:01 | 46.49168 | 60.92988 | 35916 ft | 437 kts | 253° |
| 2026-05-05 20:01 | 46.47373 | 60.84567 | 35911 ft | 436 kts | 253° |
| 2026-05-05 20:02 | 46.45577 | 60.76176 | 35912 ft | 435 kts | 253° |
| 2026-05-05 20:02 | 46.43787 | 60.67843 | 35910 ft | 435 kts | 252° |
| 2026-05-05 20:03 | 46.41978 | 60.59457 | 35905 ft | 435 kts | 252° |
| 2026-05-05 20:03 | 46.40170 | 60.51107 | 35901 ft | 432 kts | 252° |
| 2026-05-05 20:04 | 46.38364 | 60.42808 | 35902 ft | 432 kts | 252° |
| 2026-05-05 20:04 | 46.36550 | 60.34503 | 35903 ft | 432 kts | 252° |
| 2026-05-05 20:05 | 46.34742 | 60.26252 | 35896 ft | 432 kts | 252° |
| 2026-05-05 20:05 | 46.32919 | 60.17971 | 35896 ft | 432 kts | 252° |
| 2026-05-05 20:06 | 46.31088 | 60.09684 | 35897 ft | 432 kts | 252° |
| 2026-05-05 20:06 | 46.29250 | 60.01398 | 35888 ft | 432 kts | 252° |
| 2026-05-05 20:07 | 46.27406 | 59.93120 | 35894 ft | 432 kts | 252° |
| 2026-05-05 20:07 | 46.25559 | 59.84855 | 35891 ft | 432 kts | 251° |
| 2026-05-05 20:08 | 46.23707 | 59.76603 | 35890 ft | 432 kts | 251° |
| 2026-05-05 20:08 | 46.21846 | 59.68345 | 35888 ft | 432 kts | 251° |
| 2026-05-05 20:09 | 46.19978 | 59.60140 | 35888 ft | 432 kts | 251° |
| 2026-05-05 20:09 | 46.18091 | 59.51901 | 35891 ft | 432 kts | 251° |
| 2026-05-05 20:10 | 46.16198 | 59.43653 | 35884 ft | 432 kts | 251° |
| 2026-05-05 20:10 | 46.14314 | 59.35477 | 35886 ft | 432 kts | 251° |
| 2026-05-05 20:11 | 46.12408 | 59.27228 | 35882 ft | 433 kts | 250° |
| 2026-05-05 20:11 | 46.10495 | 59.18984 | 35884 ft | 434 kts | 250° |
| 2026-05-05 20:12 | 46.08572 | 59.10727 | 35883 ft | 434 kts | 250° |
| 2026-05-05 20:12 | 46.06656 | 59.02532 | 35881 ft | 434 kts | 250° |
| 2026-05-05 20:13 | 46.04721 | 58.94288 | 35882 ft | 434 kts | 250° |
| 2026-05-05 20:13 | 46.02777 | 58.86038 | 35880 ft | 434 kts | 250° |
| 2026-05-05 20:14 | 46.00829 | 58.77796 | 35879 ft | 434 kts | 250° |
| 2026-05-05 20:14 | 45.98891 | 58.69629 | 35878 ft | 433 kts | 250° |
| 2026-05-05 20:15 | 45.96927 | 58.61388 | 35877 ft | 433 kts | 250° |
| 2026-05-05 20:15 | 45.94983 | 58.53258 | 35876 ft | 433 kts | 250° |
| 2026-05-05 20:16 | 45.93013 | 58.45051 | 35873 ft | 433 kts | 249° |
| 2026-05-05 20:16 | 45.91045 | 58.36881 | 35865 ft | 433 kts | 249° |
| 2026-05-05 20:17 | 45.89402 | 58.30083 | 35862 ft | 433 kts | 249° |
| 2026-05-05 20:17 | 45.87098 | 58.20582 | 35856 ft | 433 kts | 249° |
| 2026-05-05 20:18 | 45.85433 | 58.13744 | 35852 ft | 433 kts | 249° |
| 2026-05-05 20:18 | 45.83458 | 58.05656 | 35852 ft | 433 kts | 249° |
| 2026-05-05 20:19 | 45.81463 | 57.97518 | 35841 ft | 431 kts | 249° |
| 2026-05-05 20:19 | 45.79469 | 57.89415 | 35840 ft | 431 kts | 249° |
| 2026-05-05 20:20 | 45.77470 | 57.81320 | 35842 ft | 431 kts | 249° |
| 2026-05-05 20:20 | 45.75462 | 57.73213 | 35841 ft | 431 kts | 249° |
| 2026-05-05 20:21 | 45.73451 | 57.65124 | 35840 ft | 431 kts | 249° |
| 2026-05-05 20:21 | 45.71438 | 57.57042 | 35840 ft | 431 kts | 249° |
| 2026-05-05 20:22 | 45.69415 | 57.48976 | 35843 ft | 431 kts | 249° |
| 2026-05-05 20:22 | 45.67397 | 57.40960 | 35844 ft | 431 kts | 249° |
| 2026-05-05 20:23 | 45.65368 | 57.32915 | 35840 ft | 430 kts | 248° |
| 2026-05-05 20:23 | 45.63330 | 57.24864 | 35845 ft | 429 kts | 248° |
| 2026-05-05 20:24 | 45.61292 | 57.16841 | 35846 ft | 429 kts | 248° |
| 2026-05-05 20:24 | 45.59256 | 57.08853 | 35846 ft | 429 kts | 248° |
| 2026-05-05 20:25 | 45.57221 | 57.00898 | 35851 ft | 429 kts | 248° |
| 2026-05-05 20:25 | 45.55171 | 56.92908 | 35844 ft | 428 kts | 248° |
| 2026-05-05 20:26 | 45.53117 | 56.84933 | 35844 ft | 428 kts | 248° |
| 2026-05-05 20:26 | 45.51055 | 56.76954 | 35846 ft | 428 kts | 248° |
| 2026-05-05 20:27 | 45.48990 | 56.68993 | 35843 ft | 428 kts | 248° |
| 2026-05-05 20:27 | 45.46922 | 56.61044 | 35849 ft | 428 kts | 248° |
| 2026-05-05 20:28 | 45.44847 | 56.53097 | 35846 ft | 428 kts | 248° |
| 2026-05-05 20:28 | 45.42778 | 56.45197 | 35852 ft | 428 kts | 248° |
| 2026-05-05 20:29 | 45.40689 | 56.37252 | 35850 ft | 428 kts | 248° |
| 2026-05-05 20:29 | 45.38601 | 56.29332 | 35855 ft | 427 kts | 247° |
| 2026-05-05 20:30 | 45.36511 | 56.21433 | 35854 ft | 426 kts | 247° |
| 2026-05-05 20:30 | 45.34418 | 56.13551 | 35858 ft | 426 kts | 247° |
| 2026-05-05 20:31 | 45.32318 | 56.05669 | 35862 ft | 426 kts | 247° |
| 2026-05-05 20:31 | 45.30215 | 55.97802 | 35864 ft | 426 kts | 247° |
| 2026-05-05 20:32 | 45.28121 | 55.89989 | 35880 ft | 426 kts | 247° |
| 2026-05-05 20:32 | 45.25997 | 55.82095 | 35868 ft | 430 kts | 246° |
| 2026-05-05 20:33 | 45.23850 | 55.74146 | 35873 ft | 430 kts | 246° |
| 2026-05-05 20:33 | 45.21714 | 55.66259 | 35873 ft | 430 kts | 246° |
| 2026-05-05 20:34 | 45.19563 | 55.58339 | 35873 ft | 430 kts | 246° |
| 2026-05-05 20:34 | 45.17407 | 55.50432 | 35875 ft | 429 kts | 246° |
| 2026-05-05 20:35 | 45.15252 | 55.42553 | 35876 ft | 429 kts | 246° |
| 2026-05-05 20:35 | 45.13090 | 55.34673 | 35878 ft | 429 kts | 246° |
| 2026-05-05 20:36 | 45.10922 | 55.26799 | 35882 ft | 428 kts | 246° |
| 2026-05-05 20:36 | 45.08350 | 55.19255 | 35880 ft | 424 kts | 236° |
| 2026-05-05 20:37 | 45.04555 | 55.12917 | 35881 ft | 423 kts | 225° |
| 2026-05-05 20:37 | 45.00235 | 55.07221 | 35881 ft | 424 kts | 223° |
| 2026-05-05 20:38 | 44.95893 | 55.01681 | 35881 ft | 421 kts | 223° |
| 2026-05-05 20:38 | 44.91580 | 54.96156 | 35881 ft | 417 kts | 223° |
| 2026-05-05 20:39 | 44.87288 | 54.90630 | 35887 ft | 417 kts | 223° |
| 2026-05-05 20:39 | 44.83013 | 54.85124 | 35886 ft | 417 kts | 223° |
| 2026-05-05 20:40 | 44.78719 | 54.79603 | 35887 ft | 417 kts | 223° |
| 2026-05-05 20:40 | 44.74431 | 54.74106 | 35889 ft | 417 kts | 223° |
| 2026-05-05 20:41 | 44.70144 | 54.68622 | 35894 ft | 417 kts | 223° |
| 2026-05-05 20:41 | 44.66023 | 54.62893 | 35895 ft | 417 kts | 230° |
| 2026-05-05 20:42 | 44.62576 | 54.56360 | 35900 ft | 418 kts | 233° |
| 2026-05-05 20:42 | 44.59263 | 54.49694 | 35897 ft | 419 kts | 233° |
| 2026-05-05 20:43 | 44.55937 | 54.42971 | 35899 ft | 419 kts | 233° |
| 2026-05-05 20:43 | 44.52596 | 54.36262 | 35905 ft | 419 kts | 233° |
| 2026-05-05 20:43 | 44.50930 | 54.32931 | 36006 ft | 417 kts | 233° |
| 2026-05-05 20:44 | 44.49262 | 54.29604 | 36239 ft | 417 kts | 233° |
| 2026-05-05 20:44 | 44.47610 | 54.26312 | 36426 ft | 417 kts | 233° |
| 2026-05-05 20:44 | 44.46005 | 54.23116 | 36841 ft | 411 kts | 233° |
| 2026-05-05 20:44 | 44.44304 | 54.19736 | 37137 ft | 410 kts | 233° |
| 2026-05-05 20:45 | 44.41020 | 54.13223 | 37351 ft | 412 kts | 233° |
| 2026-05-05 20:45 | 44.39352 | 54.09919 | 37530 ft | 412 kts | 233° |
| 2026-05-05 20:45 | 44.37701 | 54.06652 | 37682 ft | 412 kts | 233° |
| 2026-05-05 20:46 | 44.36044 | 54.03376 | 37824 ft | 412 kts | 233° |
| 2026-05-05 20:46 | 44.34410 | 54.00149 | 37903 ft | 414 kts | 233° |
| 2026-05-05 20:46 | 44.31049 | 53.93527 | 37916 ft | 419 kts | 233° |
| 2026-05-05 20:47 | 44.27664 | 53.86871 | 37918 ft | 420 kts | 233° |
| 2026-05-05 20:47 | 44.24283 | 53.80236 | 37918 ft | 419 kts | 233° |
| 2026-05-05 20:48 | 44.20920 | 53.73653 | 37918 ft | 419 kts | 233° |
| 2026-05-05 20:48 | 44.17534 | 53.67039 | 37921 ft | 419 kts | 233° |
| 2026-05-05 20:49 | 44.14149 | 53.60444 | 37923 ft | 419 kts | 233° |
| 2026-05-05 20:49 | 44.10750 | 53.53834 | 37926 ft | 419 kts | 233° |
| 2026-05-05 20:50 | 44.07352 | 53.47245 | 37928 ft | 421 kts | 233° |
| 2026-05-05 20:50 | 44.03927 | 53.40617 | 37922 ft | 422 kts | 233° |
| 2026-05-05 20:51 | 44.00506 | 53.34011 | 37925 ft | 422 kts | 233° |
| 2026-05-05 20:51 | 43.97074 | 53.27398 | 37924 ft | 422 kts | 233° |
| 2026-05-05 20:52 | 43.93659 | 53.20832 | 37925 ft | 422 kts | 232° |
| 2026-05-05 20:52 | 43.90221 | 53.14239 | 37926 ft | 422 kts | 232° |
| 2026-05-05 20:53 | 43.86767 | 53.07629 | 37925 ft | 422 kts | 232° |
| 2026-05-05 20:53 | 43.83309 | 53.01030 | 37956 ft | 422 kts | 232° |
| 2026-05-05 20:54 | 43.79851 | 52.94446 | 37930 ft | 421 kts | 232° |
| 2026-05-05 20:54 | 43.76403 | 52.87899 | 37932 ft | 421 kts | 232° |
| 2026-05-05 20:55 | 43.72951 | 52.81357 | 37932 ft | 421 kts | 232° |
| 2026-05-05 20:55 | 43.69504 | 52.74836 | 37940 ft | 421 kts | 232° |
| 2026-05-05 20:56 | 43.66039 | 52.68298 | 37918 ft | 421 kts | 232° |
| 2026-05-05 20:56 | 43.62606 | 52.61833 | 37937 ft | 418 kts | 232° |
| 2026-05-05 20:57 | 43.59158 | 52.55390 | 37938 ft | 417 kts | 232° |
| 2026-05-05 20:57 | 43.55705 | 52.48954 | 37943 ft | 417 kts | 231° |
| 2026-05-05 20:58 | 43.52249 | 52.42516 | 37938 ft | 418 kts | 231° |
| 2026-05-05 20:58 | 43.48788 | 52.36082 | 37943 ft | 418 kts | 231° |
| 2026-05-05 20:59 | 43.45318 | 52.29644 | 37944 ft | 418 kts | 231° |
| 2026-05-05 20:59 | 43.41871 | 52.23264 | 37953 ft | 419 kts | 231° |
| 2026-05-05 21:00 | 43.38377 | 52.16810 | 37949 ft | 420 kts | 231° |
| 2026-05-05 21:00 | 43.34886 | 52.10376 | 37951 ft | 420 kts | 231° |
| 2026-05-05 21:01 | 43.31388 | 52.03944 | 37949 ft | 420 kts | 231° |
| 2026-05-05 21:01 | 43.27885 | 51.97516 | 37945 ft | 421 kts | 231° |
| 2026-05-05 21:02 | 43.24367 | 51.91074 | 37948 ft | 422 kts | 231° |
| 2026-05-05 21:02 | 43.20849 | 51.84645 | 37951 ft | 422 kts | 231° |
| 2026-05-05 21:03 | 43.17317 | 51.78206 | 37953 ft | 422 kts | 231° |
| 2026-05-05 21:03 | 43.13789 | 51.71788 | 37942 ft | 423 kts | 231° |
| 2026-05-05 21:04 | 43.10244 | 51.65356 | 37961 ft | 424 kts | 231° |
| 2026-05-05 21:04 | 43.06708 | 51.58949 | 37960 ft | 424 kts | 231° |
| 2026-05-05 21:05 | 43.03154 | 51.52526 | 37946 ft | 424 kts | 231° |
| 2026-05-05 21:05 | 42.99598 | 51.46113 | 37955 ft | 425 kts | 231° |
| 2026-05-05 21:06 | 42.96037 | 51.39706 | 37955 ft | 425 kts | 231° |
| 2026-05-05 21:06 | 42.93042 | 51.34327 | 37955 ft | 425 kts | 230° |
| 2026-05-05 21:07 | 42.89464 | 51.27913 | 37961 ft | 425 kts | 230° |
| 2026-05-05 21:07 | 42.85881 | 51.21504 | 37941 ft | 424 kts | 230° |
| 2026-05-05 21:08 | 42.82313 | 51.15134 | 37963 ft | 420 kts | 230° |
| 2026-05-05 21:08 | 42.78791 | 51.08864 | 37964 ft | 419 kts | 230° |
| 2026-05-05 21:09 | 42.75235 | 51.02546 | 37957 ft | 420 kts | 230° |
| 2026-05-05 21:09 | 42.71684 | 50.96251 | 37978 ft | 421 kts | 230° |
| 2026-05-05 21:10 | 42.68108 | 50.89922 | 37960 ft | 422 kts | 230° |
| 2026-05-05 21:10 | 42.64535 | 50.83612 | 37958 ft | 422 kts | 230° |
| 2026-05-05 21:11 | 42.60945 | 50.77286 | 37970 ft | 422 kts | 230° |
| 2026-05-05 21:11 | 42.57374 | 50.71008 | 37971 ft | 423 kts | 230° |
| 2026-05-05 21:12 | 42.53775 | 50.64693 | 37974 ft | 423 kts | 230° |
| 2026-05-05 21:12 | 42.50168 | 50.58378 | 37974 ft | 423 kts | 230° |
| 2026-05-05 21:13 | 42.46550 | 50.52056 | 37975 ft | 425 kts | 230° |
| 2026-05-05 21:13 | 42.42915 | 50.45714 | 37974 ft | 426 kts | 230° |
| 2026-05-05 21:14 | 42.39435 | 50.39236 | 37974 ft | 427 kts | 232° |
| 2026-05-05 21:14 | 42.36022 | 50.32648 | 37991 ft | 427 kts | 232° |
| 2026-05-05 21:15 | 42.32586 | 50.26087 | 37980 ft | 428 kts | 232° |
| 2026-05-05 21:15 | 42.29139 | 50.19581 | 37980 ft | 428 kts | 232° |
| 2026-05-05 21:16 | 42.25656 | 50.13043 | 37977 ft | 428 kts | 231° |
| 2026-05-05 21:16 | 42.22183 | 50.06539 | 37982 ft | 429 kts | 231° |
| 2026-05-05 21:17 | 42.18685 | 50.00000 | 37979 ft | 430 kts | 231° |
| 2026-05-05 21:17 | 42.15189 | 49.93476 | 37981 ft | 430 kts | 231° |
| 2026-05-05 21:18 | 42.11699 | 49.86976 | 37976 ft | 430 kts | 231° |
| 2026-05-05 21:18 | 42.08193 | 49.80463 | 37979 ft | 431 kts | 231° |
| 2026-05-05 21:19 | 42.04666 | 49.73925 | 37982 ft | 431 kts | 231° |
| 2026-05-05 21:19 | 42.01131 | 49.67385 | 37984 ft | 431 kts | 231° |
| 2026-05-05 21:20 | 41.97613 | 49.60891 | 37987 ft | 431 kts | 231° |
| 2026-05-05 21:20 | 41.94058 | 49.54341 | 37981 ft | 431 kts | 231° |
| 2026-05-05 21:21 | 41.90546 | 49.47885 | 37985 ft | 430 kts | 231° |
| 2026-05-05 21:21 | 41.87019 | 49.41416 | 37985 ft | 430 kts | 231° |
| 2026-05-05 21:22 | 41.83478 | 49.34937 | 37986 ft | 430 kts | 231° |
| 2026-05-05 21:22 | 41.79936 | 49.28443 | 37987 ft | 432 kts | 232° |
| 2026-05-05 21:23 | 41.76602 | 49.21795 | 37988 ft | 432 kts | 234° |
| 2026-05-05 21:23 | 41.73316 | 49.15034 | 37987 ft | 432 kts | 234° |
| 2026-05-05 21:24 | 41.70001 | 49.08314 | 37987 ft | 433 kts | 233° |
| 2026-05-05 21:24 | 41.66663 | 49.01633 | 37988 ft | 432 kts | 233° |
| 2026-05-05 21:25 | 41.63295 | 48.94927 | 37990 ft | 432 kts | 233° |
| 2026-05-05 21:25 | 41.59960 | 48.88298 | 37990 ft | 432 kts | 233° |
| 2026-05-05 21:26 | 41.56598 | 48.81624 | 37990 ft | 433 kts | 233° |
| 2026-05-05 21:26 | 41.53238 | 48.74969 | 37996 ft | 433 kts | 233° |
| 2026-05-05 21:27 | 41.49783 | 48.68395 | 37996 ft | 432 kts | 231° |
| 2026-05-05 21:27 | 41.46204 | 48.62102 | 37999 ft | 432 kts | 230° |
| 2026-05-05 21:28 | 41.42579 | 48.55749 | 37996 ft | 433 kts | 231° |
| 2026-05-05 21:28 | 41.38956 | 48.49264 | 37996 ft | 433 kts | 231° |
| 2026-05-05 21:29 | 41.35452 | 48.42773 | 37995 ft | 433 kts | 232° |
| 2026-05-05 21:29 | 41.31941 | 48.36282 | 37988 ft | 434 kts | 232° |
| 2026-05-05 21:30 | 41.28378 | 48.29749 | 37982 ft | 434 kts | 231° |
| 2026-05-05 21:30 | 41.24841 | 48.23295 | 37981 ft | 434 kts | 231° |
| 2026-05-05 21:31 | 41.21273 | 48.16806 | 37971 ft | 436 kts | 232° |
| 2026-05-05 21:31 | 41.17664 | 48.10257 | 37934 ft | 438 kts | 231° |
| 2026-05-05 21:32 | 41.14072 | 48.03742 | 37967 ft | 437 kts | 231° |
| 2026-05-05 21:32 | 41.10998 | 47.96726 | 37949 ft | 442 kts | 244° |
| 2026-05-05 21:33 | 41.09243 | 47.88908 | 37958 ft | 448 kts | 252° |
| 2026-05-05 21:33 | 41.07826 | 47.80861 | 37992 ft | 449 kts | 252° |
| 2026-05-05 21:34 | 41.06430 | 47.72757 | 37978 ft | 449 kts | 252° |
| 2026-05-05 21:34 | 41.05012 | 47.64712 | 37985 ft | 448 kts | 252° |
| 2026-05-05 21:35 | 41.03572 | 47.56675 | 37989 ft | 448 kts | 252° |
| 2026-05-05 21:35 | 41.02122 | 47.48636 | 37989 ft | 448 kts | 252° |
| 2026-05-05 21:36 | 41.00673 | 47.40630 | 38000 ft | 447 kts | 252° |
| 2026-05-05 21:36 | 40.99225 | 47.32660 | 37991 ft | 449 kts | 252° |
| 2026-05-05 21:37 | 40.97758 | 47.24622 | 37989 ft | 449 kts | 252° |
| 2026-05-05 21:37 | 40.96288 | 47.16594 | 37987 ft | 449 kts | 252° |
| 2026-05-05 21:38 | 40.94809 | 47.08553 | 37982 ft | 449 kts | 252° |
| 2026-05-05 21:38 | 40.93330 | 47.00543 | 37982 ft | 449 kts | 252° |
| 2026-05-05 21:39 | 40.91839 | 46.92506 | 37976 ft | 450 kts | 252° |
| 2026-05-05 21:39 | 40.90344 | 46.84459 | 37968 ft | 450 kts | 252° |
| 2026-05-05 21:40 | 40.89357 | 46.76290 | 37968 ft | 453 kts | 258° |
| 2026-05-05 21:40 | 40.88569 | 46.68015 | 37957 ft | 454 kts | 258° |
| 2026-05-05 21:41 | 40.87798 | 46.59735 | 37963 ft | 455 kts | 258° |
| 2026-05-05 21:41 | 40.87013 | 46.51435 | 37949 ft | 455 kts | 258° |
| 2026-05-05 21:42 | 40.86217 | 46.43132 | 37949 ft | 455 kts | 258° |
| 2026-05-05 21:42 | 40.85412 | 46.34825 | 37947 ft | 455 kts | 258° |
| 2026-05-05 21:43 | 40.84607 | 46.26588 | 37944 ft | 455 kts | 258° |
| 2026-05-05 21:43 | 40.83791 | 46.18297 | 37939 ft | 455 kts | 258° |
| 2026-05-05 21:44 | 40.82971 | 46.10014 | 37940 ft | 455 kts | 258° |
| 2026-05-05 21:44 | 40.82142 | 46.01713 | 37947 ft | 455 kts | 258° |
| 2026-05-05 21:45 | 40.81306 | 45.93414 | 37949 ft | 457 kts | 258° |
| 2026-05-05 21:45 | 40.80463 | 45.85072 | 37942 ft | 457 kts | 258° |
| 2026-05-05 21:46 | 40.79616 | 45.76807 | 37957 ft | 457 kts | 258° |
| 2026-05-05 21:46 | 40.78761 | 45.68477 | 37957 ft | 457 kts | 258° |
| 2026-05-05 21:47 | 40.77901 | 45.60173 | 37960 ft | 457 kts | 258° |
| 2026-05-05 21:47 | 40.77084 | 45.51842 | 37960 ft | 459 kts | 262° |
| 2026-05-05 21:48 | 40.77166 | 45.43386 | 37976 ft | 463 kts | 269° |
| 2026-05-05 21:48 | 40.77545 | 45.34868 | 37964 ft | 466 kts | 269° |
| 2026-05-05 21:49 | 40.77955 | 45.26371 | 37968 ft | 466 kts | 269° |
| 2026-05-05 21:49 | 40.78349 | 45.17832 | 37966 ft | 466 kts | 269° |
| 2026-05-05 21:50 | 40.78726 | 45.09297 | 37967 ft | 465 kts | 269° |
| 2026-05-05 21:50 | 40.79095 | 45.00757 | 37964 ft | 466 kts | 269° |
| 2026-05-05 21:51 | 40.79457 | 44.92254 | 37971 ft | 468 kts | 269° |
| 2026-05-05 21:51 | 40.79814 | 44.83676 | 37984 ft | 468 kts | 269° |
| 2026-05-05 21:52 | 40.80339 | 44.70809 | 37973 ft | 468 kts | 269° |
| 2026-05-05 21:53 | 40.80682 | 44.62212 | 37982 ft | 468 kts | 269° |
| 2026-05-05 21:53 | 40.81018 | 44.53626 | 37981 ft | 470 kts | 269° |
| 2026-05-05 21:54 | 40.81295 | 44.46458 | 37982 ft | 471 kts | 269° |
| 2026-05-05 21:54 | 40.81619 | 44.37829 | 37991 ft | 470 kts | 269° |
| 2026-05-05 21:55 | 40.81940 | 44.29182 | 37986 ft | 471 kts | 269° |
| 2026-05-05 21:55 | 40.82255 | 44.20517 | 37989 ft | 471 kts | 269° |
| 2026-05-05 21:56 | 40.82561 | 44.11871 | 37993 ft | 472 kts | 269° |
| 2026-05-05 21:56 | 40.82863 | 44.03202 | 37991 ft | 473 kts | 269° |
| 2026-05-05 21:57 | 40.83158 | 43.94550 | 37991 ft | 473 kts | 269° |
| 2026-05-05 21:57 | 40.83448 | 43.85853 | 37985 ft | 474 kts | 269° |
| 2026-05-05 21:58 | 40.83731 | 43.77153 | 37986 ft | 474 kts | 269° |
| 2026-05-05 21:58 | 40.84007 | 43.68458 | 37989 ft | 476 kts | 269° |
| 2026-05-05 21:59 | 40.84408 | 43.59696 | 37984 ft | 478 kts | 271° |
| 2026-05-05 21:59 | 40.84946 | 43.50986 | 37981 ft | 479 kts | 271° |
| 2026-05-05 22:00 | 40.85466 | 43.42219 | 37990 ft | 478 kts | 271° |
| 2026-05-05 22:00 | 40.85951 | 43.33465 | 37986 ft | 478 kts | 270° |
| 2026-05-05 22:01 | 40.86418 | 43.24679 | 37989 ft | 478 kts | 270° |
| 2026-05-05 22:01 | 40.86878 | 43.15925 | 37995 ft | 478 kts | 270° |
| 2026-05-05 22:02 | 40.87333 | 43.07136 | 37990 ft | 478 kts | 270° |
| 2026-05-05 22:02 | 40.87781 | 42.98373 | 37993 ft | 478 kts | 270° |
| 2026-05-05 22:03 | 40.88223 | 42.89610 | 37993 ft | 478 kts | 270° |
| 2026-05-05 22:03 | 40.88657 | 42.80853 | 37992 ft | 482 kts | 270° |
| 2026-05-05 22:04 | 40.89089 | 42.72004 | 37992 ft | 482 kts | 270° |
| 2026-05-05 22:04 | 40.89516 | 42.63143 | 37992 ft | 482 kts | 270° |
| 2026-05-05 22:05 | 40.89935 | 42.54304 | 37996 ft | 482 kts | 270° |
| 2026-05-05 22:05 | 40.90348 | 42.45442 | 37993 ft | 483 kts | 270° |
| 2026-05-05 22:06 | 40.90753 | 42.36547 | 37996 ft | 485 kts | 270° |
| 2026-05-05 22:06 | 40.91154 | 42.27637 | 38000 ft | 485 kts | 270° |
| 2026-05-05 22:07 | 40.91550 | 42.18729 | 38004 ft | 485 kts | 270° |
| 2026-05-05 22:07 | 40.91934 | 42.09881 | 38005 ft | 485 kts | 270° |
| 2026-05-05 22:08 | 40.92315 | 42.00952 | 38016 ft | 487 kts | 270° |
| 2026-05-05 22:08 | 40.92690 | 41.92008 | 38015 ft | 488 kts | 270° |
| 2026-05-05 22:09 | 40.93060 | 41.83044 | 38018 ft | 488 kts | 270° |
| 2026-05-05 22:09 | 40.93422 | 41.74086 | 38024 ft | 488 kts | 270° |
| 2026-05-05 22:10 | 40.93775 | 41.65120 | 38021 ft | 488 kts | 270° |
| 2026-05-05 22:10 | 40.94123 | 41.56133 | 38021 ft | 490 kts | 271° |
| 2026-05-05 22:11 | 40.94466 | 41.47112 | 38019 ft | 490 kts | 270° |
| 2026-05-05 22:11 | 40.94801 | 41.38104 | 38019 ft | 490 kts | 270° |
| 2026-05-05 22:12 | 40.95129 | 41.29130 | 38021 ft | 490 kts | 270° |
| 2026-05-05 22:12 | 40.95450 | 41.20129 | 38035 ft | 491 kts | 270° |
| 2026-05-05 22:13 | 40.95765 | 41.11077 | 38036 ft | 492 kts | 270° |
| 2026-05-05 22:13 | 40.96072 | 41.02077 | 38045 ft | 493 kts | 270° |
| 2026-05-05 22:14 | 40.96377 | 40.92973 | 38045 ft | 492 kts | 270° |
| 2026-05-05 22:14 | 40.96671 | 40.83970 | 38055 ft | 492 kts | 270° |
| 2026-05-05 22:15 | 40.96957 | 40.74908 | 38049 ft | 493 kts | 270° |
| 2026-05-05 22:15 | 40.97237 | 40.65846 | 38051 ft | 493 kts | 270° |
| 2026-05-05 22:16 | 40.97510 | 40.56787 | 38053 ft | 493 kts | 270° |
| 2026-05-05 22:16 | 40.97775 | 40.47729 | 38052 ft | 493 kts | 270° |
| 2026-05-05 22:17 | 40.98035 | 40.38659 | 38056 ft | 493 kts | 270° |
| 2026-05-05 22:17 | 40.98286 | 40.29634 | 38055 ft | 493 kts | 270° |
| 2026-05-05 22:18 | 40.98531 | 40.20555 | 38057 ft | 493 kts | 270° |
| 2026-05-05 22:18 | 40.98773 | 40.11500 | 38062 ft | 493 kts | 270° |
| 2026-05-05 22:19 | 40.98997 | 40.02391 | 38052 ft | 493 kts | 270° |
| 2026-05-05 22:19 | 40.99214 | 39.93323 | 38048 ft | 493 kts | 270° |
| 2026-05-05 22:20 | 40.99425 | 39.84299 | 38048 ft | 493 kts | 270° |
| 2026-05-05 22:20 | 40.99955 | 39.75242 | 38044 ft | 494 kts | 275° |
| 2026-05-05 22:21 | 41.00796 | 39.66213 | 38051 ft | 494 kts | 276° |
| 2026-05-05 22:21 | 41.01674 | 39.57160 | 38049 ft | 495 kts | 276° |
| 2026-05-05 22:22 | 41.02540 | 39.48116 | 38056 ft | 495 kts | 276° |
| 2026-05-05 22:22 | 41.03389 | 39.39083 | 38055 ft | 495 kts | 276° |
| 2026-05-05 22:23 | 41.04233 | 39.30010 | 38068 ft | 495 kts | 276° |
| 2026-05-05 22:23 | 41.05068 | 39.20956 | 38062 ft | 495 kts | 275° |
| 2026-05-05 22:24 | 41.05896 | 39.11906 | 38058 ft | 495 kts | 276° |
| 2026-05-05 22:24 | 41.06730 | 39.02909 | 38062 ft | 495 kts | 276° |
| 2026-05-05 22:25 | 41.07564 | 38.93839 | 38061 ft | 495 kts | 275° |
| 2026-05-05 22:25 | 41.08391 | 38.84762 | 38065 ft | 495 kts | 276° |
| 2026-05-05 22:26 | 41.09210 | 38.75677 | 38066 ft | 496 kts | 276° |
| 2026-05-05 22:26 | 41.10024 | 38.66603 | 38062 ft | 496 kts | 275° |
| 2026-05-05 22:27 | 41.10806 | 38.57553 | 38057 ft | 496 kts | 275° |
| 2026-05-05 22:27 | 41.11562 | 38.48459 | 38068 ft | 496 kts | 275° |
| 2026-05-05 22:28 | 41.12315 | 38.39343 | 38069 ft | 497 kts | 275° |
| 2026-05-05 22:28 | 41.13066 | 38.30223 | 38069 ft | 497 kts | 275° |
| 2026-05-05 22:29 | 41.13815 | 38.21100 | 38071 ft | 497 kts | 275° |
| 2026-05-05 22:29 | 41.14560 | 38.11979 | 38075 ft | 497 kts | 275° |
| 2026-05-05 22:30 | 41.15297 | 38.02867 | 38071 ft | 496 kts | 275° |
| 2026-05-05 22:30 | 41.16020 | 37.93821 | 38069 ft | 496 kts | 275° |
| 2026-05-05 22:31 | 41.16750 | 37.84708 | 38067 ft | 496 kts | 275° |
| 2026-05-05 22:31 | 41.17524 | 37.75621 | 38063 ft | 496 kts | 276° |
| 2026-05-05 22:32 | 41.18303 | 37.66503 | 38065 ft | 496 kts | 275° |
| 2026-05-05 22:32 | 41.19038 | 37.57392 | 38063 ft | 495 kts | 274° |
| 2026-05-05 22:33 | 41.19553 | 37.48315 | 38065 ft | 495 kts | 274° |
| 2026-05-05 22:33 | 41.20194 | 37.39208 | 38067 ft | 495 kts | 275° |
| 2026-05-05 22:34 | 41.20880 | 37.30095 | 38067 ft | 496 kts | 275° |
| 2026-05-05 22:34 | 41.21558 | 37.20979 | 38063 ft | 496 kts | 275° |
| 2026-05-05 22:35 | 41.22266 | 37.11847 | 38067 ft | 496 kts | 275° |
| 2026-05-05 22:35 | 41.22978 | 37.02744 | 38067 ft | 496 kts | 275° |
| 2026-05-05 22:36 | 41.23680 | 36.93617 | 38057 ft | 496 kts | 275° |
| 2026-05-05 22:36 | 41.24365 | 36.84555 | 38077 ft | 496 kts | 275° |
| 2026-05-05 22:37 | 41.25050 | 36.75397 | 38081 ft | 495 kts | 275° |
| 2026-05-05 22:37 | 41.25720 | 36.66334 | 38081 ft | 495 kts | 275° |
| 2026-05-05 22:38 | 41.26429 | 36.57263 | 38060 ft | 494 kts | 278° |
| 2026-05-05 22:38 | 41.28198 | 36.48443 | 38069 ft | 494 kts | 288° |
| 2026-05-05 22:39 | 41.30384 | 36.39752 | 38067 ft | 495 kts | 288° |
| 2026-05-05 22:39 | 41.32612 | 36.31086 | 38066 ft | 494 kts | 288° |
| 2026-05-05 22:40 | 41.34820 | 36.22424 | 38048 ft | 495 kts | 288° |
| 2026-05-05 22:40 | 41.37002 | 36.13790 | 38063 ft | 495 kts | 288° |
| 2026-05-05 22:41 | 41.39185 | 36.05105 | 38062 ft | 494 kts | 288° |
| 2026-05-05 22:41 | 41.41361 | 35.96414 | 38056 ft | 494 kts | 288° |
| 2026-05-05 22:42 | 41.43528 | 35.87733 | 38051 ft | 492 kts | 288° |
| 2026-05-05 22:42 | 41.45315 | 35.80547 | 38048 ft | 491 kts | 288° |
| 2026-05-05 22:43 | 41.47464 | 35.71883 | 38045 ft | 492 kts | 288° |
| 2026-05-05 22:43 | 41.49605 | 35.63214 | 38054 ft | 492 kts | 288° |
| 2026-05-05 22:44 | 41.51735 | 35.54558 | 38047 ft | 491 kts | 288° |
| 2026-05-05 22:44 | 41.53853 | 35.45920 | 38053 ft | 492 kts | 288° |
| 2026-05-05 22:45 | 41.55971 | 35.37249 | 38051 ft | 491 kts | 288° |
| 2026-05-05 22:45 | 41.58081 | 35.28577 | 38048 ft | 491 kts | 288° |
| 2026-05-05 22:46 | 41.60185 | 35.19904 | 38051 ft | 491 kts | 288° |
| 2026-05-05 22:46 | 41.62284 | 35.11212 | 38053 ft | 491 kts | 288° |
| 2026-05-05 22:47 | 41.64378 | 35.02510 | 38055 ft | 490 kts | 288° |
| 2026-05-05 22:47 | 41.66450 | 34.93870 | 38054 ft | 490 kts | 288° |
| 2026-05-05 22:48 | 41.68522 | 34.85193 | 38059 ft | 490 kts | 288° |
| 2026-05-05 22:48 | 41.70597 | 34.76476 | 38060 ft | 490 kts | 288° |
| 2026-05-05 22:49 | 41.72654 | 34.67794 | 38061 ft | 489 kts | 288° |
| 2026-05-05 22:49 | 41.74706 | 34.59106 | 38061 ft | 489 kts | 288° |
| 2026-05-05 22:50 | 41.76748 | 34.50431 | 38059 ft | 489 kts | 288° |
| 2026-05-05 22:50 | 41.78787 | 34.41720 | 38048 ft | 489 kts | 288° |
| 2026-05-05 22:51 | 41.80804 | 34.33075 | 38049 ft | 489 kts | 288° |
| 2026-05-05 22:51 | 41.82827 | 34.24372 | 38070 ft | 489 kts | 288° |
| 2026-05-05 22:52 | 41.84845 | 34.15661 | 38068 ft | 489 kts | 288° |
| 2026-05-05 22:52 | 41.86859 | 34.06927 | 38062 ft | 489 kts | 288° |
| 2026-05-05 22:53 | 41.88859 | 33.98225 | 38046 ft | 488 kts | 288° |
| 2026-05-05 22:53 | 41.90854 | 33.89509 | 38069 ft | 488 kts | 288° |
| 2026-05-05 22:54 | 41.92840 | 33.80794 | 38060 ft | 488 kts | 288° |
| 2026-05-05 22:54 | 41.94817 | 33.72086 | 38064 ft | 487 kts | 288° |
| 2026-05-05 22:55 | 41.96683 | 33.63367 | 38068 ft | 488 kts | 286° |
| 2026-05-05 22:55 | 41.98327 | 33.54531 | 38067 ft | 488 kts | 285° |
| 2026-05-05 22:56 | 41.99968 | 33.45676 | 38062 ft | 487 kts | 285° |
| 2026-05-05 22:56 | 42.01635 | 33.36867 | 38061 ft | 485 kts | 286° |
| 2026-05-05 22:57 | 42.03309 | 33.28073 | 38062 ft | 484 kts | 286° |
| 2026-05-05 22:57 | 42.04975 | 33.19291 | 38063 ft | 484 kts | 286° |
| 2026-05-05 22:58 | 42.06631 | 33.10511 | 38060 ft | 484 kts | 286° |
| 2026-05-05 22:58 | 42.08323 | 33.01762 | 38060 ft | 483 kts | 287° |
| 2026-05-05 22:59 | 42.10118 | 32.93096 | 38060 ft | 483 kts | 287° |
| 2026-05-05 22:59 | 42.11919 | 32.84395 | 38049 ft | 483 kts | 287° |
| 2026-05-05 23:00 | 42.14581 | 32.71305 | 38061 ft | 481 kts | 287° |
| 2026-05-05 23:00 | 42.16336 | 32.62595 | 38061 ft | 481 kts | 287° |
| 2026-05-05 23:01 | 42.18083 | 32.53897 | 38059 ft | 481 kts | 287° |
| 2026-05-05 23:01 | 42.19821 | 32.45174 | 38058 ft | 481 kts | 287° |
| 2026-05-05 23:02 | 42.21553 | 32.36445 | 38058 ft | 481 kts | 287° |
| 2026-05-05 23:02 | 42.23268 | 32.27771 | 38058 ft | 481 kts | 287° |
| 2026-05-05 23:03 | 42.24987 | 32.19040 | 38050 ft | 481 kts | 287° |
| 2026-05-05 23:03 | 42.26695 | 32.10307 | 38058 ft | 481 kts | 287° |
| 2026-05-05 23:04 | 42.28403 | 32.01576 | 38056 ft | 481 kts | 287° |
| 2026-05-05 23:04 | 42.30104 | 31.92836 | 38056 ft | 481 kts | 287° |
| 2026-05-05 23:05 | 42.31798 | 31.84097 | 38048 ft | 480 kts | 287° |
| 2026-05-05 23:05 | 42.33483 | 31.75371 | 38057 ft | 480 kts | 287° |
| 2026-05-05 23:06 | 42.35149 | 31.66704 | 38054 ft | 479 kts | 287° |
| 2026-05-05 23:06 | 42.36817 | 31.57990 | 38056 ft | 478 kts | 287° |
| 2026-05-05 23:07 | 42.38475 | 31.49287 | 38056 ft | 478 kts | 287° |
| 2026-05-05 23:07 | 42.40125 | 31.40591 | 38058 ft | 477 kts | 287° |
| 2026-05-05 23:08 | 42.41771 | 31.31874 | 38057 ft | 477 kts | 287° |
| 2026-05-05 23:08 | 42.43406 | 31.23176 | 38059 ft | 477 kts | 287° |
| 2026-05-05 23:09 | 42.45026 | 31.14519 | 38055 ft | 477 kts | 287° |
| 2026-05-05 23:09 | 42.46647 | 31.05819 | 38056 ft | 476 kts | 287° |
| 2026-05-05 23:10 | 42.48257 | 30.97123 | 38059 ft | 476 kts | 287° |
| 2026-05-05 23:10 | 42.49861 | 30.88409 | 38059 ft | 476 kts | 287° |
| 2026-05-05 23:11 | 42.51460 | 30.79690 | 38061 ft | 476 kts | 287° |
| 2026-05-05 23:11 | 42.53052 | 30.70963 | 38061 ft | 476 kts | 286° |
| 2026-05-05 23:12 | 42.54627 | 30.62294 | 38058 ft | 476 kts | 286° |
| 2026-05-05 23:12 | 42.56205 | 30.53568 | 38048 ft | 476 kts | 286° |
| 2026-05-05 23:13 | 42.57779 | 30.44826 | 38061 ft | 476 kts | 286° |
| 2026-05-05 23:13 | 42.59336 | 30.36135 | 38062 ft | 477 kts | 286° |
| 2026-05-05 23:14 | 42.61262 | 30.27561 | 38068 ft | 473 kts | 297° |
| 2026-05-05 23:14 | 42.64688 | 30.20026 | 38060 ft | 468 kts | 308° |
| 2026-05-05 23:15 | 42.68643 | 30.12981 | 38065 ft | 469 kts | 309° |
| 2026-05-05 23:15 | 42.72655 | 30.05975 | 38067 ft | 469 kts | 309° |
| 2026-05-05 23:16 | 42.76658 | 29.98931 | 38065 ft | 469 kts | 309° |
| 2026-05-05 23:16 | 42.80640 | 29.91873 | 38053 ft | 470 kts | 309° |
| 2026-05-05 23:17 | 42.84586 | 29.84849 | 38063 ft | 470 kts | 309° |
| 2026-05-05 23:17 | 42.88561 | 29.77757 | 38072 ft | 470 kts | 309° |
| 2026-05-05 23:18 | 42.92530 | 29.70662 | 38064 ft | 470 kts | 309° |
| 2026-05-05 23:18 | 42.96500 | 29.63548 | 38070 ft | 471 kts | 309° |
| 2026-05-05 23:19 | 43.00471 | 29.56416 | 38075 ft | 472 kts | 309° |
| 2026-05-05 23:19 | 43.04438 | 29.49272 | 38075 ft | 472 kts | 309° |
| 2026-05-05 23:20 | 43.08397 | 29.42128 | 38072 ft | 472 kts | 309° |
| 2026-05-05 23:20 | 43.12357 | 29.34962 | 38072 ft | 472 kts | 309° |
| 2026-05-05 23:21 | 43.16308 | 29.27796 | 38391 ft | 469 kts | 308° |
| 2026-05-05 23:21 | 43.18242 | 29.24282 | 38671 ft | 468 kts | 308° |
| 2026-05-05 23:21 | 43.20206 | 29.20709 | 38850 ft | 467 kts | 308° |
| 2026-05-05 23:22 | 43.22161 | 29.17147 | 38990 ft | 467 kts | 308° |
| 2026-05-05 23:22 | 43.24112 | 29.13592 | 39150 ft | 467 kts | 308° |
| 2026-05-05 23:22 | 43.26063 | 29.10029 | 39275 ft | 467 kts | 308° |
| 2026-05-05 23:22 | 43.28007 | 29.06475 | 39403 ft | 467 kts | 308° |
| 2026-05-05 23:23 | 43.29952 | 29.02917 | 39524 ft | 467 kts | 308° |
| 2026-05-05 23:23 | 43.31843 | 28.99451 | 39635 ft | 467 kts | 308° |
| 2026-05-05 23:23 | 43.33822 | 28.95820 | 39741 ft | 467 kts | 308° |
| 2026-05-05 23:23 | 43.35768 | 28.92246 | 39863 ft | 467 kts | 308° |
| 2026-05-05 23:24 | 43.37707 | 28.88681 | 39972 ft | 467 kts | 308° |
| 2026-05-05 23:24 | 43.39651 | 28.85101 | 40052 ft | 468 kts | 308° |
| 2026-05-05 23:24 | 43.43565 | 28.77883 | 40069 ft | 473 kts | 308° |
| 2026-05-05 23:25 | 43.47503 | 28.70601 | 40063 ft | 473 kts | 308° |
| 2026-05-05 23:25 | 43.51426 | 28.63327 | 40073 ft | 473 kts | 308° |
| 2026-05-05 23:26 | 43.55349 | 28.56038 | 40069 ft | 472 kts | 308° |
| 2026-05-05 23:26 | 43.59257 | 28.48757 | 40066 ft | 472 kts | 308° |
| 2026-05-05 23:27 | 43.63162 | 28.41464 | 40057 ft | 473 kts | 308° |
| 2026-05-05 23:27 | 43.67038 | 28.34208 | 40062 ft | 473 kts | 308° |
| 2026-05-05 23:28 | 43.70944 | 28.26878 | 40062 ft | 473 kts | 307° |
| 2026-05-05 23:28 | 43.74839 | 28.19548 | 40062 ft | 473 kts | 307° |
| 2026-05-05 23:29 | 43.78074 | 28.13448 | 40063 ft | 473 kts | 307° |
| 2026-05-05 23:29 | 43.82597 | 28.04897 | 40069 ft | 473 kts | 307° |
| 2026-05-05 23:30 | 43.85861 | 27.98711 | 40066 ft | 474 kts | 307° |
| 2026-05-05 23:30 | 43.89747 | 27.91327 | 40062 ft | 474 kts | 307° |
| 2026-05-05 23:31 | 43.93630 | 27.83933 | 40058 ft | 474 kts | 307° |
| 2026-05-05 23:31 | 43.97478 | 27.76584 | 40058 ft | 474 kts | 307° |
| 2026-05-05 23:32 | 44.01348 | 27.69175 | 40050 ft | 474 kts | 307° |
| 2026-05-05 23:32 | 44.05214 | 27.61757 | 40046 ft | 474 kts | 307° |
| 2026-05-05 23:33 | 44.09066 | 27.54345 | 40047 ft | 473 kts | 307° |
| 2026-05-05 23:33 | 44.12917 | 27.46918 | 40048 ft | 473 kts | 307° |
| 2026-05-05 23:34 | 44.16762 | 27.39481 | 40046 ft | 473 kts | 306° |
| 2026-05-05 23:34 | 44.20598 | 27.32044 | 40037 ft | 472 kts | 306° |
| 2026-05-05 23:35 | 44.24428 | 27.24599 | 40042 ft | 472 kts | 306° |
| 2026-05-05 23:35 | 44.28241 | 27.17167 | 40034 ft | 473 kts | 306° |
| 2026-05-05 23:36 | 44.32070 | 27.09687 | 40035 ft | 473 kts | 306° |
| 2026-05-05 23:36 | 44.35890 | 27.02204 | 40037 ft | 472 kts | 306° |
| 2026-05-05 23:37 | 44.39699 | 26.94723 | 40035 ft | 472 kts | 306° |
| 2026-05-05 23:37 | 44.43483 | 26.87273 | 40032 ft | 472 kts | 306° |
| 2026-05-05 23:38 | 44.47275 | 26.79787 | 40035 ft | 472 kts | 306° |
| 2026-05-05 23:38 | 44.51074 | 26.72268 | 40032 ft | 472 kts | 306° |
| 2026-05-05 23:39 | 44.54861 | 26.64754 | 40025 ft | 472 kts | 306° |
| 2026-05-05 23:39 | 44.58584 | 26.57242 | 40025 ft | 472 kts | 302° |
| 2026-05-05 23:40 | 44.61622 | 26.49069 | 40024 ft | 472 kts | 297° |
| 2026-05-05 23:40 | 44.64450 | 26.40746 | 40016 ft | 471 kts | 296° |
| 2026-05-05 23:41 | 44.67241 | 26.32413 | 40029 ft | 472 kts | 296° |
| 2026-05-05 23:41 | 44.70043 | 26.24047 | 40022 ft | 473 kts | 296° |
| 2026-05-05 23:42 | 44.72846 | 26.15678 | 40022 ft | 472 kts | 296° |
| 2026-05-05 23:42 | 44.75617 | 26.07380 | 40018 ft | 472 kts | 296° |
| 2026-05-05 23:43 | 44.78400 | 25.99025 | 40022 ft | 472 kts | 296° |
| 2026-05-05 23:43 | 44.81182 | 25.90643 | 40017 ft | 471 kts | 296° |
| 2026-05-05 23:44 | 44.83948 | 25.82282 | 40022 ft | 470 kts | 296° |
| 2026-05-05 23:44 | 44.86709 | 25.73913 | 40027 ft | 470 kts | 296° |
| 2026-05-05 23:45 | 44.89460 | 25.65543 | 40034 ft | 470 kts | 296° |
| 2026-05-05 23:45 | 44.92203 | 25.57174 | 40033 ft | 470 kts | 296° |
| 2026-05-05 23:46 | 44.94931 | 25.48822 | 40034 ft | 468 kts | 296° |
| 2026-05-05 23:46 | 44.97650 | 25.40472 | 40036 ft | 468 kts | 296° |
| 2026-05-05 23:47 | 45.00362 | 25.32118 | 40033 ft | 468 kts | 296° |
| 2026-05-05 23:47 | 45.03065 | 25.23766 | 40036 ft | 468 kts | 296° |
| 2026-05-05 23:48 | 45.05751 | 25.15438 | 40039 ft | 467 kts | 295° |
| 2026-05-05 23:48 | 45.08448 | 25.07050 | 40045 ft | 467 kts | 295° |
| 2026-05-05 23:49 | 45.11131 | 24.98678 | 40047 ft | 467 kts | 295° |
| 2026-05-05 23:49 | 45.13798 | 24.90327 | 40046 ft | 467 kts | 295° |
| 2026-05-05 23:50 | 45.16475 | 24.81922 | 40047 ft | 467 kts | 295° |
| 2026-05-05 23:50 | 45.19134 | 24.73544 | 40047 ft | 467 kts | 295° |
| 2026-05-05 23:51 | 45.21793 | 24.65139 | 40047 ft | 467 kts | 295° |
| 2026-05-05 23:51 | 45.24450 | 24.56711 | 40047 ft | 466 kts | 295° |
| 2026-05-05 23:52 | 45.27068 | 24.48381 | 40045 ft | 465 kts | 295° |
| 2026-05-05 23:52 | 45.29699 | 24.39984 | 40042 ft | 465 kts | 295° |
| 2026-05-05 23:53 | 45.32320 | 24.31591 | 40042 ft | 465 kts | 295° |
| 2026-05-05 23:53 | 45.34935 | 24.23190 | 40039 ft | 465 kts | 294° |
| 2026-05-05 23:54 | 45.37540 | 24.14788 | 40041 ft | 465 kts | 294° |
| 2026-05-05 23:54 | 45.40148 | 24.06356 | 40043 ft | 465 kts | 294° |
| 2026-05-05 23:55 | 45.42745 | 23.97928 | 40043 ft | 465 kts | 294° |
| 2026-05-05 23:55 | 45.45340 | 23.89481 | 40050 ft | 465 kts | 294° |
| 2026-05-05 23:56 | 45.47909 | 23.81087 | 40044 ft | 465 kts | 294° |
| 2026-05-05 23:56 | 45.50485 | 23.72647 | 40046 ft | 465 kts | 294° |
| 2026-05-05 23:57 | 45.53063 | 23.64168 | 40046 ft | 465 kts | 294° |
| 2026-05-05 23:57 | 45.55627 | 23.55711 | 40047 ft | 465 kts | 294° |
| 2026-05-05 23:58 | 45.58191 | 23.47222 | 40045 ft | 465 kts | 294° |
| 2026-05-05 23:58 | 45.60746 | 23.38734 | 40033 ft | 465 kts | 294° |
| 2026-05-05 23:59 | 45.63293 | 23.30245 | 40033 ft | 465 kts | 294° |
| 2026-05-05 23:59 | 45.65840 | 23.21728 | 40027 ft | 465 kts | 294° |
| 2026-05-06 00:00 | 45.68361 | 23.13271 | 40022 ft | 465 kts | 294° |
| 2026-05-06 00:00 | 45.70893 | 23.04746 | 40023 ft | 465 kts | 294° |
| 2026-05-06 00:01 | 45.73414 | 22.96229 | 40012 ft | 465 kts | 293° |
| 2026-05-06 00:01 | 45.75931 | 22.87697 | 40002 ft | 464 kts | 293° |
| 2026-05-06 00:02 | 45.78421 | 22.79226 | 40006 ft | 464 kts | 293° |
| 2026-05-06 00:02 | 45.80922 | 22.70690 | 40004 ft | 464 kts | 293° |
| 2026-05-06 00:03 | 45.83411 | 22.62165 | 40000 ft | 464 kts | 293° |
| 2026-05-06 00:03 | 45.85899 | 22.53617 | 39995 ft | 463 kts | 292° |
| 2026-05-06 00:04 | 45.88373 | 22.45086 | 39993 ft | 462 kts | 292° |
| 2026-05-06 00:04 | 45.90832 | 22.36575 | 39990 ft | 462 kts | 292° |
| 2026-05-06 00:05 | 45.94502 | 22.23817 | 39987 ft | 462 kts | 292° |
| 2026-05-06 00:06 | 45.96948 | 22.15281 | 39984 ft | 461 kts | 292° |
| 2026-05-06 00:06 | 45.99386 | 22.06741 | 39985 ft | 461 kts | 292° |
| 2026-05-06 00:07 | 46.01813 | 21.98205 | 39981 ft | 461 kts | 292° |
| 2026-05-06 00:07 | 46.04224 | 21.89703 | 39977 ft | 461 kts | 292° |
| 2026-05-06 00:08 | 46.06637 | 21.81162 | 39977 ft | 460 kts | 292° |
| 2026-05-06 00:08 | 46.09044 | 21.72610 | 39979 ft | 459 kts | 292° |
| 2026-05-06 00:09 | 46.11439 | 21.64074 | 39978 ft | 459 kts | 292° |
| 2026-05-06 00:09 | 46.13817 | 21.55566 | 39970 ft | 459 kts | 291° |
| 2026-05-06 00:10 | 46.16199 | 21.47017 | 39966 ft | 460 kts | 291° |
| 2026-05-06 00:10 | 46.18578 | 21.38446 | 39967 ft | 460 kts | 291° |
| 2026-05-06 00:11 | 46.20955 | 21.29851 | 39966 ft | 461 kts | 291° |
| 2026-05-06 00:11 | 46.23313 | 21.21295 | 39969 ft | 461 kts | 291° |
| 2026-05-06 00:12 | 46.25680 | 21.12676 | 39967 ft | 461 kts | 291° |
| 2026-05-06 00:12 | 46.28164 | 21.04111 | 39964 ft | 462 kts | 295° |
| 2026-05-06 00:13 | 46.30975 | 20.95768 | 39960 ft | 462 kts | 296° |
| 2026-05-06 00:13 | 46.33794 | 20.87422 | 39960 ft | 462 kts | 295° |
| 2026-05-06 00:14 | 46.36535 | 20.79083 | 39953 ft | 461 kts | 295° |
| 2026-05-06 00:14 | 46.39260 | 20.70670 | 39954 ft | 461 kts | 294° |
| 2026-05-06 00:15 | 46.41979 | 20.62231 | 39955 ft | 461 kts | 294° |
| 2026-05-06 00:15 | 46.44689 | 20.53802 | 39954 ft | 461 kts | 294° |
| 2026-05-06 00:16 | 46.47398 | 20.45355 | 39949 ft | 461 kts | 294° |
| 2026-05-06 00:16 | 46.50078 | 20.36974 | 39949 ft | 461 kts | 294° |
| 2026-05-06 00:17 | 46.52769 | 20.28527 | 39949 ft | 461 kts | 294° |
| 2026-05-06 00:17 | 46.55455 | 20.20068 | 39947 ft | 461 kts | 294° |
| 2026-05-06 00:18 | 46.58130 | 20.11618 | 39949 ft | 461 kts | 294° |
| 2026-05-06 00:18 | 46.60353 | 20.04574 | 39947 ft | 461 kts | 294° |
| 2026-05-06 00:19 | 46.63027 | 19.96073 | 39942 ft | 460 kts | 294° |
| 2026-05-06 00:19 | 46.65681 | 19.87608 | 39942 ft | 460 kts | 294° |
| 2026-05-06 00:20 | 46.68335 | 19.79116 | 39938 ft | 460 kts | 294° |
| 2026-05-06 00:20 | 46.70983 | 19.70616 | 39939 ft | 460 kts | 294° |
| 2026-05-06 00:21 | 46.73621 | 19.62117 | 39943 ft | 461 kts | 294° |
| 2026-05-06 00:21 | 46.76262 | 19.53580 | 39939 ft | 462 kts | 294° |
| 2026-05-06 00:22 | 46.78901 | 19.45021 | 39935 ft | 462 kts | 293° |
| 2026-05-06 00:22 | 46.81511 | 19.36525 | 39935 ft | 461 kts | 293° |
| 2026-05-06 00:23 | 46.84125 | 19.27904 | 39937 ft | 461 kts | 293° |
| 2026-05-06 00:23 | 46.86691 | 19.19384 | 39933 ft | 461 kts | 293° |
| 2026-05-06 00:24 | 46.89277 | 19.10784 | 39932 ft | 461 kts | 292° |
| 2026-05-06 00:24 | 46.91852 | 19.02202 | 39927 ft | 461 kts | 292° |
| 2026-05-06 00:25 | 46.94422 | 18.93604 | 39926 ft | 461 kts | 292° |
| 2026-05-06 00:25 | 46.96992 | 18.84979 | 39928 ft | 461 kts | 292° |
| 2026-05-06 00:26 | 46.99549 | 18.76368 | 39926 ft | 461 kts | 292° |
| 2026-05-06 00:26 | 47.02091 | 18.67777 | 39917 ft | 462 kts | 292° |
| 2026-05-06 00:27 | 47.04647 | 18.59104 | 39915 ft | 463 kts | 292° |
| 2026-05-06 00:27 | 47.07203 | 18.50404 | 39912 ft | 463 kts | 292° |
| 2026-05-06 00:28 | 47.09743 | 18.41732 | 39909 ft | 463 kts | 292° |
| 2026-05-06 00:28 | 47.12266 | 18.33084 | 39906 ft | 464 kts | 291° |
| 2026-05-06 00:29 | 47.14803 | 18.24356 | 39905 ft | 464 kts | 291° |
| 2026-05-06 00:29 | 47.17332 | 18.15624 | 39902 ft | 464 kts | 291° |
| 2026-05-06 00:30 | 47.19863 | 18.06857 | 39895 ft | 464 kts | 291° |
| 2026-05-06 00:30 | 47.22367 | 17.98150 | 39898 ft | 465 kts | 291° |
| 2026-05-06 00:31 | 47.24877 | 17.89387 | 39887 ft | 465 kts | 291° |
| 2026-05-06 00:31 | 47.27385 | 17.80603 | 39883 ft | 465 kts | 291° |
| 2026-05-06 00:32 | 47.29888 | 17.71806 | 39885 ft | 465 kts | 291° |
| 2026-05-06 00:32 | 47.32369 | 17.63056 | 39886 ft | 465 kts | 290° |
| 2026-05-06 00:33 | 47.34862 | 17.54230 | 39884 ft | 467 kts | 290° |
| 2026-05-06 00:33 | 47.37353 | 17.45374 | 39887 ft | 467 kts | 290° |
| 2026-05-06 00:34 | 47.39836 | 17.36520 | 39884 ft | 467 kts | 290° |
| 2026-05-06 00:34 | 47.42314 | 17.27650 | 39880 ft | 467 kts | 290° |
| 2026-05-06 00:35 | 47.44787 | 17.18763 | 39868 ft | 468 kts | 290° |
| 2026-05-06 00:35 | 47.47240 | 17.09915 | 39859 ft | 468 kts | 290° |
| 2026-05-06 00:36 | 47.49699 | 17.01011 | 39842 ft | 468 kts | 289° |
| 2026-05-06 00:36 | 47.52156 | 16.92086 | 39843 ft | 468 kts | 289° |
| 2026-05-06 00:37 | 47.54608 | 16.83140 | 39834 ft | 470 kts | 289° |
| 2026-05-06 00:37 | 47.57061 | 16.74161 | 39835 ft | 471 kts | 289° |
| 2026-05-06 00:38 | 47.59721 | 16.65283 | 39839 ft | 472 kts | 292° |
| 2026-05-06 00:38 | 47.62536 | 16.56464 | 39829 ft | 472 kts | 292° |
| 2026-05-06 00:39 | 47.65306 | 16.47647 | 39824 ft | 472 kts | 292° |
| 2026-05-06 00:39 | 47.68035 | 16.38793 | 39823 ft | 472 kts | 291° |
| 2026-05-06 00:40 | 47.70746 | 16.29925 | 39814 ft | 472 kts | 291° |
| 2026-05-06 00:40 | 47.73449 | 16.21052 | 39819 ft | 472 kts | 291° |
| 2026-05-06 00:41 | 47.76151 | 16.12161 | 39819 ft | 471 kts | 291° |
| 2026-05-06 00:41 | 47.78827 | 16.03326 | 39818 ft | 471 kts | 291° |
| 2026-05-06 00:42 | 47.81507 | 15.94442 | 39823 ft | 471 kts | 291° |
| 2026-05-06 00:42 | 47.84180 | 15.85551 | 39833 ft | 471 kts | 291° |
| 2026-05-06 00:43 | 47.86836 | 15.76684 | 39834 ft | 472 kts | 290° |
| 2026-05-06 00:43 | 47.89510 | 15.67723 | 39839 ft | 473 kts | 290° |
| 2026-05-06 00:44 | 47.92185 | 15.58732 | 39846 ft | 474 kts | 290° |
| 2026-05-06 00:44 | 47.94856 | 15.49720 | 39850 ft | 474 kts | 290° |
| 2026-05-06 00:45 | 47.97492 | 15.40790 | 39856 ft | 474 kts | 290° |
| 2026-05-06 00:45 | 48.00158 | 15.31724 | 39852 ft | 475 kts | 290° |
| 2026-05-06 00:46 | 48.02796 | 15.22723 | 39859 ft | 475 kts | 290° |
| 2026-05-06 00:46 | 48.05439 | 15.13668 | 39857 ft | 475 kts | 290° |
| 2026-05-06 00:47 | 48.08078 | 15.04598 | 39877 ft | 475 kts | 290° |
| 2026-05-06 00:47 | 48.10707 | 14.95530 | 39860 ft | 474 kts | 289° |
| 2026-05-06 00:48 | 48.13309 | 14.86516 | 39860 ft | 474 kts | 289° |
| 2026-05-06 00:48 | 48.15922 | 14.77428 | 39863 ft | 474 kts | 289° |
| 2026-05-06 00:49 | 48.18524 | 14.68348 | 39868 ft | 474 kts | 289° |
| 2026-05-06 00:49 | 48.21120 | 14.59258 | 39873 ft | 474 kts | 289° |
| 2026-05-06 00:50 | 48.23713 | 14.50157 | 39877 ft | 475 kts | 289° |
| 2026-05-06 00:50 | 48.26697 | 14.41327 | 39880 ft | 477 kts | 294° |
| 2026-05-06 00:51 | 48.29820 | 14.32516 | 39883 ft | 478 kts | 294° |
| 2026-05-06 00:51 | 48.32953 | 14.23710 | 39885 ft | 478 kts | 294° |
| 2026-05-06 00:52 | 48.36083 | 14.14867 | 39883 ft | 479 kts | 293° |
| 2026-05-06 00:52 | 48.39200 | 14.06018 | 39873 ft | 479 kts | 293° |
| 2026-05-06 00:53 | 48.42296 | 13.97196 | 39868 ft | 478 kts | 293° |
| 2026-05-06 00:53 | 48.45395 | 13.88331 | 39873 ft | 479 kts | 293° |
| 2026-05-06 00:54 | 48.48501 | 13.79416 | 39869 ft | 480 kts | 293° |
| 2026-05-06 00:54 | 48.51602 | 13.70486 | 39870 ft | 481 kts | 293° |
| 2026-05-06 00:55 | 48.54702 | 13.61534 | 39866 ft | 481 kts | 293° |
| 2026-05-06 00:55 | 48.57780 | 13.52610 | 39876 ft | 481 kts | 293° |
| 2026-05-06 00:56 | 48.60826 | 13.43620 | 39869 ft | 481 kts | 292° |
| 2026-05-06 00:56 | 48.63778 | 13.34545 | 39867 ft | 481 kts | 291° |
| 2026-05-06 00:57 | 48.66721 | 13.25450 | 39866 ft | 481 kts | 292° |
| 2026-05-06 00:57 | 48.69682 | 13.16333 | 39863 ft | 481 kts | 292° |
| 2026-05-06 00:58 | 48.72634 | 13.07232 | 39870 ft | 482 kts | 292° |
| 2026-05-06 00:58 | 48.75586 | 12.98101 | 39873 ft | 482 kts | 292° |
| 2026-05-06 00:59 | 48.78528 | 12.88969 | 39854 ft | 482 kts | 292° |
| 2026-05-06 00:59 | 48.81461 | 12.79828 | 39858 ft | 482 kts | 291° |
| 2026-05-06 01:00 | 48.84376 | 12.70711 | 39857 ft | 482 kts | 291° |
| 2026-05-06 01:00 | 48.87297 | 12.61540 | 39873 ft | 482 kts | 291° |
| 2026-05-06 01:01 | 48.90212 | 12.52358 | 39855 ft | 482 kts | 291° |
| 2026-05-06 01:01 | 48.93116 | 12.43173 | 39857 ft | 482 kts | 291° |
| 2026-05-06 01:02 | 48.96001 | 12.34014 | 39855 ft | 482 kts | 291° |
| 2026-05-06 01:02 | 48.98893 | 12.24803 | 39851 ft | 483 kts | 291° |
| 2026-05-06 01:03 | 49.01779 | 12.15577 | 39844 ft | 483 kts | 291° |
| 2026-05-06 01:03 | 49.04656 | 12.06343 | 39844 ft | 482 kts | 291° |
| 2026-05-06 01:04 | 49.07534 | 11.97072 | 39859 ft | 482 kts | 291° |
| 2026-05-06 01:04 | 49.10379 | 11.87872 | 39840 ft | 483 kts | 291° |
| 2026-05-06 01:05 | 49.13239 | 11.78590 | 39843 ft | 484 kts | 291° |
| 2026-05-06 01:05 | 49.16097 | 11.69281 | 39844 ft | 484 kts | 291° |
| 2026-05-06 01:06 | 49.18944 | 11.59971 | 39841 ft | 484 kts | 291° |
| 2026-05-06 01:06 | 49.21313 | 11.52197 | 39848 ft | 484 kts | 291° |
| 2026-05-06 01:07 | 49.24162 | 11.42817 | 39841 ft | 485 kts | 291° |
| 2026-05-06 01:07 | 49.26994 | 11.33455 | 39852 ft | 485 kts | 291° |
| 2026-05-06 01:08 | 49.30276 | 11.22562 | 39844 ft | 485 kts | 291° |
| 2026-05-06 01:08 | 49.32629 | 11.14721 | 39833 ft | 485 kts | 291° |
| 2026-05-06 01:09 | 49.35440 | 11.05323 | 39843 ft | 485 kts | 291° |
| 2026-05-06 01:09 | 49.38242 | 10.95919 | 39826 ft | 485 kts | 291° |
| 2026-05-06 01:10 | 49.41109 | 10.86596 | 39830 ft | 486 kts | 293° |
| 2026-05-06 01:10 | 49.44168 | 10.77333 | 39873 ft | 486 kts | 293° |
| 2026-05-06 01:11 | 49.47217 | 10.68075 | 39847 ft | 486 kts | 293° |
| 2026-05-06 01:11 | 49.50231 | 10.58767 | 39823 ft | 486 kts | 293° |
| 2026-05-06 01:12 | 49.53223 | 10.49445 | 39823 ft | 486 kts | 292° |
| 2026-05-06 01:12 | 49.56205 | 10.40112 | 39823 ft | 486 kts | 292° |
| 2026-05-06 01:13 | 49.59170 | 10.30799 | 39826 ft | 486 kts | 292° |
| 2026-05-06 01:13 | 49.62149 | 10.21413 | 39814 ft | 487 kts | 292° |
| 2026-05-06 01:14 | 49.66592 | 10.07350 | 39812 ft | 487 kts | 292° |
| 2026-05-06 01:14 | 49.69554 | 9.97927 | 39810 ft | 487 kts | 292° |
| 2026-05-06 01:15 | 49.72503 | 9.88511 | 39801 ft | 487 kts | 292° |
| 2026-05-06 01:15 | 49.75450 | 9.79065 | 39799 ft | 487 kts | 292° |
| 2026-05-06 01:16 | 49.78389 | 9.69613 | 39795 ft | 487 kts | 292° |
| 2026-05-06 01:16 | 49.81317 | 9.60154 | 39797 ft | 487 kts | 292° |
| 2026-05-06 01:17 | 49.84224 | 9.50729 | 39796 ft | 488 kts | 292° |
| 2026-05-06 01:17 | 49.87145 | 9.41223 | 39791 ft | 488 kts | 292° |
| 2026-05-06 01:18 | 49.90059 | 9.31701 | 39792 ft | 489 kts | 292° |
| 2026-05-06 01:18 | 49.92972 | 9.22149 | 39789 ft | 489 kts | 292° |
| 2026-05-06 01:19 | 49.95878 | 9.12580 | 39793 ft | 489 kts | 292° |
| 2026-05-06 01:19 | 49.98739 | 9.03121 | 39787 ft | 489 kts | 292° |
| 2026-05-06 01:20 | 50.01625 | 8.93547 | 39792 ft | 489 kts | 292° |
| 2026-05-06 01:20 | 50.04498 | 8.83976 | 39796 ft | 489 kts | 292° |
| 2026-05-06 01:21 | 50.07299 | 8.74382 | 39800 ft | 488 kts | 290° |
| 2026-05-06 01:21 | 50.09767 | 8.64592 | 39801 ft | 487 kts | 288° |
| 2026-05-06 01:22 | 50.12188 | 8.54736 | 39801 ft | 487 kts | 288° |
| 2026-05-06 01:22 | 50.14660 | 8.44872 | 39798 ft | 487 kts | 289° |
| 2026-05-06 01:23 | 50.17134 | 8.35087 | 39779 ft | 487 kts | 289° |
| 2026-05-06 01:23 | 50.19619 | 8.25244 | 39786 ft | 487 kts | 289° |
| 2026-05-06 01:24 | 50.22089 | 8.15403 | 39776 ft | 487 kts | 289° |
| 2026-05-06 01:24 | 50.24553 | 8.05538 | 39776 ft | 487 kts | 289° |
| 2026-05-06 01:25 | 50.26977 | 7.95787 | 39773 ft | 487 kts | 288° |
| 2026-05-06 01:25 | 50.29422 | 7.85907 | 39774 ft | 487 kts | 288° |
| 2026-05-06 01:26 | 50.31855 | 7.76034 | 39777 ft | 487 kts | 288° |
| 2026-05-06 01:26 | 50.34279 | 7.66153 | 39778 ft | 486 kts | 288° |
| 2026-05-06 01:27 | 50.36684 | 7.56307 | 39776 ft | 486 kts | 288° |
| 2026-05-06 01:27 | 50.39095 | 7.46393 | 39776 ft | 486 kts | 288° |
| 2026-05-06 01:28 | 50.41492 | 7.36488 | 39779 ft | 486 kts | 288° |
| 2026-05-06 01:28 | 50.43889 | 7.26545 | 39776 ft | 487 kts | 288° |
| 2026-05-06 01:29 | 50.46274 | 7.16602 | 39777 ft | 487 kts | 288° |
| 2026-05-06 01:29 | 50.48651 | 7.06644 | 39779 ft | 487 kts | 288° |
| 2026-05-06 01:30 | 50.51024 | 6.96662 | 39789 ft | 487 kts | 288° |
| 2026-05-06 01:30 | 50.53369 | 6.86753 | 39782 ft | 486 kts | 288° |
| 2026-05-06 01:31 | 50.55719 | 6.76771 | 39780 ft | 486 kts | 288° |
| 2026-05-06 01:31 | 50.58059 | 6.66786 | 39777 ft | 486 kts | 288° |
| 2026-05-06 01:32 | 50.60388 | 6.56804 | 39785 ft | 486 kts | 288° |
| 2026-05-06 01:32 | 50.62696 | 6.46870 | 39796 ft | 486 kts | 288° |
| 2026-05-06 01:33 | 50.65009 | 6.36863 | 39798 ft | 486 kts | 288° |
| 2026-05-06 01:33 | 50.67312 | 6.26851 | 39789 ft | 486 kts | 288° |
| 2026-05-06 01:34 | 50.69612 | 6.16810 | 39799 ft | 486 kts | 288° |
| 2026-05-06 01:34 | 50.71884 | 6.06840 | 39827 ft | 486 kts | 288° |
| 2026-05-06 01:35 | 50.74166 | 5.96780 | 39818 ft | 486 kts | 287° |
| 2026-05-06 01:35 | 50.76436 | 5.86726 | 39824 ft | 486 kts | 287° |
| 2026-05-06 01:36 | 50.78698 | 5.76659 | 39824 ft | 486 kts | 287° |
| 2026-05-06 01:36 | 50.80951 | 5.66584 | 39833 ft | 486 kts | 287° |
| 2026-05-06 01:37 | 50.83195 | 5.56499 | 39824 ft | 486 kts | 287° |
| 2026-05-06 01:37 | 50.85434 | 5.46389 | 39824 ft | 486 kts | 287° |
| 2026-05-06 01:38 | 50.87660 | 5.36289 | 39825 ft | 486 kts | 287° |
| 2026-05-06 01:38 | 50.89881 | 5.26164 | 39829 ft | 486 kts | 287° |
| 2026-05-06 01:39 | 50.92089 | 5.16045 | 39835 ft | 486 kts | 287° |
| 2026-05-06 01:39 | 50.94290 | 5.05908 | 39838 ft | 486 kts | 287° |
| 2026-05-06 01:40 | 50.96482 | 4.95765 | 39838 ft | 486 kts | 287° |
| 2026-05-06 01:40 | 50.98449 | 4.86618 | 39841 ft | 486 kts | 287° |
| 2026-05-06 01:41 | 51.00617 | 4.76490 | 39840 ft | 486 kts | 287° |
| 2026-05-06 01:41 | 51.02781 | 4.66331 | 39853 ft | 486 kts | 287° |
| 2026-05-06 01:42 | 51.04940 | 4.56142 | 39855 ft | 485 kts | 287° |
| 2026-05-06 01:42 | 51.07077 | 4.46010 | 39857 ft | 485 kts | 287° |
| 2026-05-06 01:43 | 51.09216 | 4.35817 | 39856 ft | 485 kts | 287° |
| 2026-05-06 01:43 | 51.11347 | 4.25609 | 39859 ft | 485 kts | 287° |
| 2026-05-06 01:44 | 51.13467 | 4.15400 | 39857 ft | 485 kts | 286° |
| 2026-05-06 01:44 | 51.15576 | 4.05192 | 39862 ft | 485 kts | 286° |
| 2026-05-06 01:45 | 51.17675 | 3.94981 | 39866 ft | 485 kts | 286° |
| 2026-05-06 01:45 | 51.19772 | 3.84726 | 39870 ft | 485 kts | 286° |
| 2026-05-06 01:46 | 51.21855 | 3.74488 | 39875 ft | 485 kts | 286° |
| 2026-05-06 01:46 | 51.24253 | 3.64421 | 39873 ft | 487 kts | 296° |
| 2026-05-06 01:47 | 51.27576 | 3.54997 | 39878 ft | 488 kts | 298° |
| 2026-05-06 01:47 | 51.31024 | 3.45710 | 39881 ft | 487 kts | 299° |
| 2026-05-06 01:48 | 51.34420 | 3.36337 | 39882 ft | 486 kts | 294° |
| 2026-05-06 01:48 | 51.37010 | 3.26383 | 39885 ft | 485 kts | 289° |
| 2026-05-06 01:49 | 51.39408 | 3.16303 | 39895 ft | 485 kts | 289° |
| 2026-05-06 01:49 | 51.41429 | 3.07672 | 39895 ft | 485 kts | 289° |
| 2026-05-06 01:50 | 51.43798 | 2.97551 | 39905 ft | 484 kts | 288° |
| 2026-05-06 01:50 | 51.46154 | 2.87446 | 39911 ft | 484 kts | 288° |
| 2026-05-06 01:51 | 51.48509 | 2.77323 | 39906 ft | 485 kts | 289° |
| 2026-05-06 01:51 | 51.50870 | 2.67142 | 39912 ft | 485 kts | 288° |
| 2026-05-06 01:52 | 51.53197 | 2.57054 | 39916 ft | 485 kts | 287° |
| 2026-05-06 01:52 | 51.55537 | 2.46860 | 39919 ft | 483 kts | 288° |
| 2026-05-06 01:53 | 51.57843 | 2.36747 | 39922 ft | 483 kts | 288° |
| 2026-05-06 01:53 | 51.60143 | 2.26627 | 39927 ft | 482 kts | 288° |
| 2026-05-06 01:54 | 51.62446 | 2.16495 | 39923 ft | 482 kts | 288° |
| 2026-05-06 01:54 | 51.64736 | 2.06364 | 39922 ft | 480 kts | 288° |
| 2026-05-06 01:55 | 51.67008 | 1.96224 | 39926 ft | 481 kts | 288° |
| 2026-05-06 01:55 | 51.69256 | 1.86129 | 39917 ft | 482 kts | 288° |
| 2026-05-06 01:56 | 51.71513 | 1.75952 | 39937 ft | 482 kts | 287° |
| 2026-05-06 01:56 | 51.73760 | 1.65778 | 39938 ft | 481 kts | 288° |
| 2026-05-06 01:57 | 51.75992 | 1.55593 | 39938 ft | 481 kts | 287° |
| 2026-05-06 01:57 | 51.77383 | 1.50647 | 39835 ft | 485 kts | 301° |
| 2026-05-06 01:57 | 51.79481 | 1.46390 | 39422 ft | 488 kts | 315° |
| 2026-05-06 01:58 | 51.82181 | 1.43055 | 38819 ft | 490 kts | 327° |
| 2026-05-06 01:58 | 51.85138 | 1.40289 | 38003 ft | 490 kts | 330° |
| 2026-05-06 01:58 | 51.88148 | 1.37650 | 37199 ft | 491 kts | 330° |
| 2026-05-06 01:58 | 51.91161 | 1.35068 | 36342 ft | 489 kts | 331° |
| 2026-05-06 01:59 | 51.94148 | 1.32546 | 35460 ft | 478 kts | 329° |
| 2026-05-06 01:59 | 51.96726 | 1.29565 | 34647 ft | 463 kts | 314° |
| 2026-05-06 01:59 | 51.98747 | 1.25481 | 33743 ft | 447 kts | 297° |
| 2026-05-06 01:59 | 51.99872 | 1.20994 | 32809 ft | 433 kts | 280° |
| 2026-05-06 02:00 | 52.00137 | 1.16185 | 31883 ft | 420 kts | 263° |
| 2026-05-06 02:00 | 51.99602 | 1.11588 | 30978 ft | 410 kts | 253° |
| 2026-05-06 02:00 | 51.98812 | 1.07238 | 30108 ft | 407 kts | 251° |
| 2026-05-06 02:00 | 51.97960 | 1.02850 | 29144 ft | 428 kts | 251° |
| 2026-05-06 02:01 | 51.97026 | 0.98131 | 28185 ft | 449 kts | 251° |
| 2026-05-06 02:01 | 51.96042 | 0.93213 | 27360 ft | 462 kts | 251° |
| 2026-05-06 02:01 | 51.95043 | 0.88263 | 26491 ft | 460 kts | 251° |
| 2026-05-06 02:01 | 51.94066 | 0.83469 | 25628 ft | 456 kts | 251° |
| 2026-05-06 02:02 | 51.93048 | 0.78530 | 24754 ft | 452 kts | 251° |
| 2026-05-06 02:02 | 51.92045 | 0.73727 | 23922 ft | 446 kts | 251° |
| 2026-05-06 02:02 | 51.91046 | 0.68994 | 23021 ft | 441 kts | 251° |
| 2026-05-06 02:02 | 51.90064 | 0.64381 | 21998 ft | 436 kts | 251° |
| 2026-05-06 02:03 | 51.89082 | 0.59781 | 20958 ft | 429 kts | 251° |
| 2026-05-06 02:03 | 51.88202 | 0.55678 | 20071 ft | 417 kts | 251° |
| 2026-05-06 02:03 | 51.87256 | 0.51285 | 19053 ft | 404 kts | 251° |
| 2026-05-06 02:03 | 51.86337 | 0.47074 | 18086 ft | 392 kts | 250° |
| 2026-05-06 02:04 | 51.85177 | 0.43155 | 17051 ft | 381 kts | 239° |
| 2026-05-06 02:04 | 51.83554 | 0.39867 | 16261 ft | 367 kts | 225° |
| 2026-05-06 02:04 | 51.81677 | 0.37195 | 15509 ft | 354 kts | 221° |
| 2026-05-06 02:04 | 51.79803 | 0.34718 | 14795 ft | 342 kts | 221° |
| 2026-05-06 02:05 | 51.77996 | 0.32363 | 14114 ft | 332 kts | 221° |
| 2026-05-06 02:05 | 51.76204 | 0.30041 | 13464 ft | 321 kts | 221° |
| 2026-05-06 02:05 | 51.74507 | 0.27858 | 12812 ft | 311 kts | 220° |
| 2026-05-06 02:05 | 51.72880 | 0.25771 | 12182 ft | 303 kts | 220° |
| 2026-05-06 02:06 | 51.71864 | 0.24466 | 11773 ft | 299 kts | 220° |
| 2026-05-06 02:06 | 51.70461 | 0.22668 | 11218 ft | 293 kts | 220° |
| 2026-05-06 02:06 | 51.68883 | 0.20648 | 10599 ft | 287 kts | 220° |
| 2026-05-06 02:06 | 51.67336 | 0.18673 | 10063 ft | 280 kts | 220° |
| 2026-05-06 02:07 | 51.65847 | 0.16752 | 9659 ft | 267 kts | 223° |
| 2026-05-06 02:07 | 51.64735 | 0.14490 | 9237 ft | 253 kts | 250° |
| 2026-05-06 02:07 | 51.64370 | 0.11823 | 8847 ft | 245 kts | 267° |
| 2026-05-06 02:07 | 51.64244 | 0.09109 | 8451 ft | 244 kts | 270° |
| 2026-05-06 02:08 | 51.64181 | 0.06388 | 8070 ft | 242 kts | 271° |
| 2026-05-06 02:08 | 51.64128 | 0.03679 | 7699 ft | 243 kts | 271° |
| 2026-05-06 02:08 | 51.64075 | 0.00973 | 7322 ft | 242 kts | 271° |
| 2026-05-06 02:08 | 51.64017 | -0.01712 | 7064 ft | 236 kts | 270° |
| 2026-05-06 02:09 | 51.63973 | -0.04300 | 7046 ft | 244 kts | 271° |
| 2026-05-06 02:09 | 51.63942 | -0.06466 | 7039 ft | 244 kts | 271° |
| 2026-05-06 02:09 | 51.63905 | -0.08858 | 7038 ft | 235 kts | 271° |
| 2026-05-06 02:09 | 51.63866 | -0.11141 | 7041 ft | 232 kts | 271° |
| 2026-05-06 02:10 | 51.63829 | -0.13242 | 7039 ft | 233 kts | 271° |
| 2026-05-06 02:10 | 51.63784 | -0.15857 | 7043 ft | 235 kts | 271° |
| 2026-05-06 02:10 | 51.63744 | -0.18457 | 7047 ft | 235 kts | 271° |
| 2026-05-06 02:10 | 51.63699 | -0.21119 | 7056 ft | 235 kts | 271° |
| 2026-05-06 02:11 | 51.63658 | -0.23695 | 7049 ft | 235 kts | 271° |
| 2026-05-06 02:11 | 51.63621 | -0.26311 | 7045 ft | 235 kts | 271° |
| 2026-05-06 02:11 | 51.63581 | -0.28923 | 7042 ft | 235 kts | 271° |
| 2026-05-06 02:11 | 51.63536 | -0.31556 | 7048 ft | 235 kts | 271° |
| 2026-05-06 02:12 | 51.63491 | -0.34080 | 7047 ft | 235 kts | 271° |
| 2026-05-06 02:12 | 51.63448 | -0.36554 | 7017 ft | 235 kts | 271° |
| 2026-05-06 02:12 | 51.63396 | -0.39194 | 7016 ft | 234 kts | 270° |
| 2026-05-06 02:12 | 51.63346 | -0.41807 | 7020 ft | 235 kts | 271° |
| 2026-05-06 02:13 | 51.63298 | -0.44435 | 7024 ft | 234 kts | 271° |
| 2026-05-06 02:13 | 51.63251 | -0.46949 | 7024 ft | 234 kts | 271° |
| 2026-05-06 02:13 | 51.63204 | -0.49580 | 7018 ft | 234 kts | 271° |
| 2026-05-06 02:13 | 51.63158 | -0.52193 | 7018 ft | 235 kts | 271° |
| 2026-05-06 02:14 | 51.63111 | -0.54827 | 7018 ft | 235 kts | 270° |
| 2026-05-06 02:14 | 51.63068 | -0.57461 | 7019 ft | 235 kts | 271° |
| 2026-05-06 02:14 | 51.62992 | -0.60058 | 7015 ft | 237 kts | 265° |
| 2026-05-06 02:14 | 51.62450 | -0.62561 | 6982 ft | 240 kts | 244° |
| 2026-05-06 02:15 | 51.61610 | -0.64878 | 6843 ft | 240 kts | 241° |
| 2026-05-06 02:15 | 51.60719 | -0.67158 | 6595 ft | 240 kts | 240° |
| 2026-05-06 02:15 | 51.59829 | -0.69417 | 6354 ft | 236 kts | 240° |
| 2026-05-06 02:15 | 51.58964 | -0.71609 | 6107 ft | 229 kts | 240° |
| 2026-05-06 02:16 | 51.58134 | -0.73708 | 6006 ft | 217 kts | 240° |
| 2026-05-06 02:16 | 51.57317 | -0.75765 | 5971 ft | 217 kts | 240° |
| 2026-05-06 02:16 | 51.56530 | -0.77736 | 5772 ft | 208 kts | 240° |
| 2026-05-06 02:16 | 51.55706 | -0.79596 | 5497 ft | 203 kts | 230° |
| 2026-05-06 02:17 | 51.54577 | -0.80919 | 5257 ft | 201 kts | 212° |
| 2026-05-06 02:17 | 51.53348 | -0.82017 | 4969 ft | 203 kts | 211° |
| 2026-05-06 02:17 | 51.52050 | -0.82923 | 4569 ft | 205 kts | 193° |
| 2026-05-06 02:17 | 51.50638 | -0.82806 | 4201 ft | 204 kts | 165° |
| 2026-05-06 02:18 | 51.49283 | -0.82137 | 3802 ft | 203 kts | 153° |
| 2026-05-06 02:18 | 51.48238 | -0.80724 | 3435 ft | 197 kts | 125° |
| 2026-05-06 02:18 | 51.47448 | -0.78946 | 3093 ft | 192 kts | 116° |
| 2026-05-06 02:18 | 51.47316 | -0.76992 | 3016 ft | 170 kts | 73° |
| 2026-05-06 02:19 | 51.47529 | -0.75197 | 3013 ft | 161 kts | 78° |
| 2026-05-06 02:19 | 51.47641 | -0.73418 | 3008 ft | 156 kts | 83° |
| 2026-05-06 02:19 | 51.47671 | -0.71764 | 2992 ft | 141 kts | 86° |
| 2026-05-06 02:19 | 51.47670 | -0.70236 | 2860 ft | 139 kts | 86° |
| 2026-05-06 02:20 | 51.47681 | -0.67158 | 2469 ft | 137 kts | 86° |
| 2026-05-06 02:20 | 51.47686 | -0.65633 | 2266 ft | 137 kts | 86° |
| 2026-05-06 02:20 | 51.47692 | -0.64107 | 2089 ft | 136 kts | 85° |
| 2026-05-06 02:21 | 51.47697 | -0.62595 | 1900 ft | 135 kts | 85° |
| 2026-05-06 02:21 | 51.47703 | -0.61098 | 1720 ft | 136 kts | 85° |
| 2026-05-06 02:21 | 51.47709 | -0.59559 | 1522 ft | 136 kts | 86° |
| 2026-05-06 02:21 | 51.47714 | -0.58087 | 1339 ft | 134 kts | 85° |
| 2026-05-06 02:22 | 51.47720 | -0.56560 | 1144 ft | 134 kts | 86° |
| 2026-05-06 02:22 | 51.47729 | -0.55082 | 951 ft | 134 kts | 85° |
| 2026-05-06 02:22 | 51.47729 | -0.53566 | 733 ft | 135 kts | 86° |
| 2026-05-06 02:22 | 51.47715 | -0.52065 | 548 ft | 135 kts | 87° |
| 2026-05-06 02:23 | 51.47729 | -0.50582 | 355 ft | 133 kts | 83° |
| 2026-05-06 02:23 | 51.47749 | -0.49062 | 205 ft | 139 kts | 86° |
| 2026-05-06 02:23 | 51.47755 | -0.47557 | 98 ft | 134 kts | 86° |
| 2026-05-06 02:23 | 51.47762 | -0.46333 | 96 ft | 99 kts | 89° |
| 2026-05-06 02:24 | 51.47762 | -0.45541 | 91 ft | 59 kts | 90° |
| 2026-05-06 02:24 | 51.47763 | -0.45085 | 98 ft | 35 kts | 90° |
| 2026-05-06 02:24 | 51.47762 | -0.44764 | 95 ft | 29 kts | 92° |
| 2026-05-06 02:24 | 51.47723 | -0.44468 | 96 ft | 22 kts | 112° |
| 2026-05-06 02:25 | 51.47679 | -0.44315 | 95 ft | 0 kts | 115° |
| 2026-05-06 02:25 | 51.47665 | -0.44270 | 96 ft | 10 kts | 125° |
| 2026-05-06 02:25 | 51.47606 | -0.44252 | 96 ft | 0 kts | 229° |
| 2026-05-06 02:25 | 51.47601 | -0.44270 | 95 ft | 6 kts | 250° |
| 2026-05-06 02:26 | 51.47600 | -0.44395 | 92 ft | 17 kts | 270° |
| 2026-05-06 02:26 | 51.47599 | -0.44605 | 94 ft | 21 kts | 270° |
| 2026-05-06 02:26 | 51.47599 | -0.44851 | 92 ft | 24 kts | 270° |
| 2026-05-06 02:26 | 51.47599 | -0.45128 | 93 ft | 26 kts | 268° |
| 2026-05-06 02:27 | 51.47596 | -0.45428 | 95 ft | 28 kts | 270° |
| 2026-05-06 02:27 | 51.47596 | -0.45705 | 96 ft | 30 kts | 270° |
| 2026-05-06 02:27 | 51.47595 | -0.45993 | 97 ft | 27 kts | 269° |
| 2026-05-06 02:27 | 51.47594 | -0.46295 | 96 ft | 29 kts | 269° |
| 2026-05-06 02:28 | 51.47592 | -0.46604 | 96 ft | 22 kts | 270° |
| 2026-05-06 02:28 | 51.47586 | -0.46864 | 96 ft | 24 kts | 265° |
| 2026-05-06 02:28 | 51.47582 | -0.47140 | 95 ft | 27 kts | 269° |
| 2026-05-06 02:28 | 51.47581 | -0.47441 | 95 ft | 29 kts | 269° |
| 2026-05-06 02:29 | 51.47580 | -0.47738 | 95 ft | 21 kts | 270° |
| 2026-05-06 02:29 | 51.47580 | -0.47943 | 96 ft | 11 kts | 270° |
| 2026-05-06 02:29 | 51.47578 | -0.48059 | 96 ft | 12 kts | 260° |
| 2026-05-06 02:29 | 51.47541 | -0.48111 | 95 ft | 0 kts | 194° |
| 2026-05-06 02:30 | 51.47540 | -0.48111 | 95 ft | 0 kts | 193° |
| 2026-05-06 02:30 | 51.47538 | -0.48112 | 95 ft | 2 kts | 193° |
| 2026-05-06 02:30 | 51.47516 | -0.48114 | 94 ft | 4 kts | 173° |
| 2026-05-06 02:30 | 51.47498 | -0.48079 | 97 ft | 6 kts | 114° |
| 2026-05-06 02:31 | 51.47490 | -0.48002 | 96 ft | 9 kts | 93° |
| 2026-05-06 02:31 | 51.47478 | -0.47891 | 97 ft | 11 kts | 125° |
| 2026-05-06 02:31 | 51.47405 | -0.47872 | 95 ft | 13 kts | 180° |
| 2026-05-06 02:31 | 51.47333 | -0.47868 | 95 ft | 5 kts | 165° |
| 2026-05-06 02:32 | 51.47318 | -0.47833 | 95 ft | 5 kts | 104° |
| 2026-05-06 02:32 | 51.47315 | -0.47766 | 94 ft | 7 kts | 91° |
| 2026-05-06 02:32 | 51.47315 | -0.47749 | 92 ft | 0 kts | 90° |
| 2026-05-06 02:32 | 51.47315 | -0.47735 | 92 ft | 3 kts | 89° |
| 2026-05-06 02:33 | 51.47315 | -0.47724 | 92 ft | 0 kts | 89° |